M I D A S
Marine Information and Data Acquisition System
Tripno 524 of the Zeeleeuw from 2003-06-25 06:54:58 to 2003-06-25 11:03:42
Back to CruiseResearch ActivitiesStationsMapUnderway DataData graphs

EquipmentUnitsComment
TimeDGPSUTC
LatitudeDGPSDM.mWGS84
LongitudeDGPSDM.mWGS84
TemperatureSBE03/SBE38deg celciusITS90
ConductivitySBE21S/mITS90
SalinitySBE21 Practical Salinity Units
ChlorophylAChelsea fluorimeterg/lCalibrated in Aceton
Missing or incorrect values are displayed as -999
Sea surface data collected by the RV Zeeleeuw from 2003-06-25 06:54:58 to 2003-06-25 11:03:42
                                                                                    Next 1000 lines
Time Latitude Longitude Temperature Conductivity Salinity ChlorophylA
2003-06-25 06:55:06 51°13.6 2°56.1 -999 5.104737 34.254957 -0.74754
2003-06-25 06:55:12 51°13.6 2°56.1 -999 5.104842 34.25678 -0.781249
2003-06-25 06:55:16 51°13.6 2°56.09 -999 5.104737 34.256498 -0.781249
2003-06-25 06:55:22 51°13.6 2°56.09 49.886906 5.104737 34.256498 -0.781249
2003-06-25 06:55:28 51°13.61 2°56.09 48.794482 5.104737 34.257012 -0.814958
2003-06-25 06:55:32 51°13.61 2°56.08 49.570881 5.104526 34.255934 -0.781249
2003-06-25 06:55:38 51°13.61 2°56.08 49.570881 5.104526 34.255934 -0.781249
2003-06-25 06:55:44 51°13.61 2°56.07 49.680506 5.104631 34.257244 -0.781249
2003-06-25 06:55:48 51°13.61 2°56.07 49.576624 5.104526 34.256448 -0.781249
2003-06-25 06:55:54 51°13.61 2°56.06 48.708901 5.10442 34.256166 -0.781249
2003-06-25 06:56:00 51°13.61 2°56.06 49.112013 5.10442 34.256679 -0.781249
2003-06-25 06:56:04 51°13.62 2°56.05 49.372576 5.104315 34.256397 -0.74754
2003-06-25 06:56:10 51°13.62 2°56.05 49.372576 5.104315 34.256397 -0.74754
2003-06-25 06:56:14 51°13.62 2°56.04 49.048822 5.104104 34.255319 -0.814958
2003-06-25 06:56:20 51°13.62 2°56.03 48.795657 5.104209 34.256629 -0.74754
2003-06-25 06:56:26 51°13.62 2°56.03 48.429084 5.103998 34.255551 -0.781249
2003-06-25 06:56:30 51°13.62 2°56.02 46.804193 5.104209 34.257143 -0.781249
2003-06-25 06:56:36 51°13.63 2°56.01 47.899142 5.103892 34.255269 -0.781249
2003-06-25 06:56:40 51°13.63 2°56.01 47.899142 5.103892 34.255269 -0.781249
2003-06-25 06:56:46 51°13.63 2°56 47.508549 5.103892 34.255269 -0.74754
2003-06-25 06:56:52 51°13.63 2°55.99 47.373243 5.103892 34.255783 -0.781249
2003-06-25 06:56:56 51°13.63 2°55.99 46.672765 5.103787 34.256015 -0.781249
2003-06-25 06:57:02 51°13.63 2°55.98 46.052259 5.103787 34.256015 -0.781249
2003-06-25 06:57:06 51°13.64 2°55.97 46.905358 5.103787 34.256015 -0.781249
2003-06-25 06:57:12 51°13.64 2°55.96 47.575001 5.103681 34.256246 -0.74754
2003-06-25 06:57:16 51°13.64 2°55.95 47.575001 5.103681 34.256246 -0.74754
2003-06-25 06:57:22 51°13.64 2°55.94 47.899255 5.103681 34.25676 -0.781249
2003-06-25 06:57:26 51°13.64 2°55.94 45.307745 5.103576 34.255964 -0.781249
2003-06-25 06:57:32 51°13.65 2°55.93 48.011288 5.10347 34.255168 -0.74754
2003-06-25 06:57:36 51°13.65 2°55.92 47.107358 5.10347 34.255682 -0.781249
2003-06-25 06:57:42 51°13.65 2°55.91 44.531135 5.103365 34.255914 -0.781249
2003-06-25 06:57:46 51°13.65 2°55.9 44.531135 5.103365 34.255914 -0.781249
2003-06-25 06:57:52 51°13.66 2°55.89 48.026453 5.103259 34.255632 -0.781249
2003-06-25 06:57:56 51°13.66 2°55.88 47.864689 5.103365 34.256942 -0.814958
2003-06-25 06:58:02 51°13.66 2°55.87 47.66117 5.103259 34.256146 -0.781249
2003-06-25 06:58:06 51°13.66 2°55.86 47.903723 5.103154 34.255864 -0.74754
2003-06-25 06:58:12 51°13.66 2°55.85 49.64556 5.103048 34.255582 -0.781249
2003-06-25 06:58:16 51°13.67 2°55.85 49.64556 5.103048 34.255582 -0.781249
2003-06-25 06:58:20 51°13.67 2°55.84 49.382057 5.103048 34.255582 -0.74754
2003-06-25 06:58:26 51°13.67 2°55.83 49.949163 5.102943 34.255814 -0.781249
2003-06-25 06:58:32 51°13.67 2°55.82 -999 5.102837 34.255017 -0.781249
2003-06-25 06:58:36 51°13.67 2°55.82 47.461547 5.102943 34.256328 -0.781249
2003-06-25 06:58:40 51°13.67 2°55.81 47.461547 5.102943 34.256328 -0.781249
2003-06-25 06:58:44 51°13.67 2°55.8 46.298271 5.102837 34.256045 -0.781249
2003-06-25 06:58:50 51°13.68 2°55.8 47.970493 5.102837 34.256045 -0.781249
2003-06-25 06:58:54 51°13.68 2°55.79 48.133245 5.102731 34.255763 -0.814958
2003-06-25 06:58:58 51°13.68 2°55.79 48.04828 5.102731 34.256792 -0.781249
2003-06-25 06:59:02 51°13.68 2°55.78 48.604303 5.102626 34.255995 -0.781249
2003-06-25 06:59:08 51°13.68 2°55.78 48.604303 5.102626 34.255995 -0.781249
2003-06-25 06:59:12 51°13.68 2°55.78 48.689482 5.10252 34.255713 -0.781249
2003-06-25 06:59:16 51°13.68 2°55.77 48.389808 5.102415 34.254917 -0.781249
2003-06-25 06:59:20 51°13.68 2°55.77 47.637572 5.10252 34.256227 -0.781249
2003-06-25 06:59:26 51°13.68 2°55.77 49.135018 5.102309 34.255149 -0.781249
2003-06-25 06:59:32 51°13.68 2°55.76 48.354987 5.102309 34.255663 -0.781249
2003-06-25 06:59:36 51°13.68 2°55.76 46.705892 5.102309 34.256177 -0.781249
2003-06-25 06:59:40 51°13.68 2°55.76 46.705892 5.102309 34.256177 -0.781249
2003-06-25 06:59:46 51°13.68 2°55.75 48.555255 5.102204 34.255895 -0.814958
2003-06-25 06:59:52 51°13.68 2°55.75 47.687313 5.102204 34.256409 -0.781249
2003-06-25 06:59:58 51°13.68 2°55.75 46.413099 5.102098 34.255613 -0.74754
2003-06-25 07:00:04 51°13.68 2°55.75 46.963243 5.102204 34.256923 -0.74754
2003-06-25 07:00:08 51°13.68 2°55.75 46.963243 5.102204 34.256923 -0.74754
2003-06-25 07:00:14 51°13.69 2°55.75 46.057662 5.101993 34.255845 -0.74754
2003-06-25 07:00:18 51°13.69 2°55.75 46.610204 5.101993 34.256359 -0.781249
2003-06-25 07:00:24 51°13.69 2°55.75 46.960842 5.101993 34.256359 -0.74754
2003-06-25 07:00:30 51°13.69 2°55.75 46.232033 5.101781 34.255795 -0.74754
2003-06-25 07:00:34 51°13.69 2°55.75 45.318471 5.101781 34.255795 -0.781249
2003-06-25 07:00:38 51°13.69 2°55.75 46.90264 5.10157 34.254716 -0.781249
2003-06-25 07:00:44 51°13.69 2°55.76 46.90264 5.10157 34.254716 -0.781249
2003-06-25 07:00:48 51°13.7 2°55.76 46.816681 5.101676 34.256541 -0.74754
2003-06-25 07:00:52 51°13.7 2°55.76 44.400001 5.101676 34.256027 -0.74754
2003-06-25 07:00:56 51°13.7 2°55.76 44.163066 5.10157 34.256259 -0.814958
2003-06-25 07:01:02 51°13.71 2°55.76 43.120431 5.101465 34.255977 -0.781249
2003-06-25 07:01:06 51°13.71 2°55.76 44.355143 5.101465 34.256491 -0.781249
2003-06-25 07:01:12 51°13.72 2°55.76 44.355143 5.101465 34.256491 -0.781249
2003-06-25 07:01:16 51°13.72 2°55.76 43.354389 5.101465 34.256491 -0.781249
2003-06-25 07:01:20 51°13.72 2°55.76 45.819705 5.101359 34.256209 -0.781249
2003-06-25 07:01:26 51°13.73 2°55.75 45.052707 5.101148 34.255131 -0.781249
2003-06-25 07:01:32 51°13.74 2°55.74 44.958889 5.101148 34.256159 -0.781249
2003-06-25 07:01:36 51°13.74 2°55.74 44.49918 5.101148 34.256159 -0.781249
2003-06-25 07:01:42 51°13.75 2°55.73 44.49918 5.101148 34.256159 -0.781249
2003-06-25 07:01:46 51°13.75 2°55.72 44.428076 5.101148 34.255645 -0.781249
2003-06-25 07:01:52 51°13.76 2°55.71 45.799421 5.101148 34.255645 -0.814958
2003-06-25 07:01:56 51°13.76 2°55.71 45.951353 5.101043 34.254848 -0.781249
2003-06-25 07:02:02 51°13.77 2°55.7 45.716521 5.101043 34.255363 -0.781249
2003-06-25 07:02:06 51°13.77 2°55.69 45.99997 5.100937 34.254052 -0.781249
2003-06-25 07:02:12 51°13.78 2°55.69 45.99997 5.100937 34.254052 -0.781249
2003-06-25 07:02:16 51°13.78 2°55.68 45.993002 5.100831 34.254284 -0.781249
2003-06-25 07:02:22 51°13.79 2°55.67 45.374997 5.100832 34.254798 -0.74754
2003-06-25 07:02:26 51°13.8 2°55.67 45.789827 5.100831 34.254284 -0.781249
2003-06-25 07:02:32 51°13.8 2°55.66 44.711075 5.100726 34.255031 -0.781249
2003-06-25 07:02:36 51°13.81 2°55.65 44.988388 5.100726 34.255545 -0.74754
2003-06-25 07:02:42 51°13.81 2°55.64 44.988388 5.100726 34.255545 -0.74754
2003-06-25 07:02:46 51°13.82 2°55.64 44.874109 5.10062 34.255263 -0.781249
2003-06-25 07:02:52 51°13.83 2°55.63 42.34139 5.100515 34.254981 -0.781249
2003-06-25 07:02:56 51°13.83 2°55.63 42.01114 5.100515 34.256524 -0.74754
2003-06-25 07:03:00 51°13.84 2°55.62 41.327308 5.100304 34.255445 -0.814958
2003-06-25 07:03:04 51°13.84 2°55.62 42.027057 5.100515 34.257552 -0.781249
2003-06-25 07:03:12 51°13.85 2°55.61 42.027057 5.100515 34.257552 -0.781249
2003-06-25 07:03:16 51°13.86 2°55.61 41.548291 5.100409 34.257785 -0.781249
2003-06-25 07:03:22 51°13.86 2°55.6 41.62975 5.100304 34.257503 -0.781249
2003-06-25 07:03:26 51°13.87 2°55.6 41.254209 5.100198 34.256706 -0.74754
2003-06-25 07:03:32 51°13.88 2°55.59 43.893661 5.100093 34.255909 -0.781249
2003-06-25 07:03:36 51°13.88 2°55.59 43.893661 5.100093 34.255909 -0.781249
2003-06-25 07:03:40 51°13.89 2°55.59 43.930854 5.100198 34.256192 -0.781249
2003-06-25 07:03:46 51°13.89 2°55.58 43.845092 5.100093 34.255909 -0.781249
2003-06-25 07:03:52 51°13.9 2°55.58 41.954514 5.099987 34.255627 -0.781249
2003-06-25 07:03:56 51°13.91 2°55.57 40.374231 5.099776 34.254549 -0.781249
2003-06-25 07:04:02 51°13.91 2°55.57 42.132421 5.099882 34.255345 -0.781249
2003-06-25 07:04:06 51°13.92 2°55.56 42.132421 5.099882 34.255345 -0.781249
2003-06-25 07:04:12 51°13.93 2°55.56 40.908296 5.099882 34.256374 -0.74754
2003-06-25 07:04:16 51°13.93 2°55.55 41.811578 5.099776 34.256606 -0.781249
2003-06-25 07:04:20 51°13.94 2°55.55 41.506631 5.099776 34.257121 -0.781249
2003-06-25 07:04:26 51°13.94 2°55.54 41.461684 5.099565 34.255528 -0.74754
2003-06-25 07:04:32 51°13.95 2°55.54 42.579893 5.099565 34.256042 -0.781249
2003-06-25 07:04:36 51°13.96 2°55.53 42.059698 5.099565 34.255013 -0.814958
2003-06-25 07:04:42 51°13.97 2°55.53 42.059698 5.099565 34.255013 -0.814958
2003-06-25 07:04:46 51°13.97 2°55.52 43.342873 5.099248 34.253652 -0.781249
2003-06-25 07:04:52 51°13.98 2°55.52 43.515815 5.099459 34.255245 -0.781249
2003-06-25 07:04:56 51°13.99 2°55.51 43.382578 5.099459 34.256274 -0.781249
2003-06-25 07:05:02 51°14 2°55.51 43.053089 5.099354 34.255992 -0.74754
2003-06-25 07:05:06 51°14 2°55.5 43.736051 5.099248 34.25571 -0.814958
2003-06-25 07:05:12 51°14.01 2°55.5 43.736051 5.099248 34.25571 -0.814958
2003-06-25 07:05:16 51°14.02 2°55.49 44.099721 5.099037 34.254117 -0.74754
2003-06-25 07:05:22 51°14.03 2°55.48 43.310611 5.099248 34.25571 -0.781249
2003-06-25 07:05:26 51°14.03 2°55.48 43.066532 5.099037 34.254631 -0.781249
2003-06-25 07:05:32 51°14.04 2°55.47 40.706781 5.099037 34.255146 -0.781249
2003-06-25 07:05:36 51°14.05 2°55.47 40.489606 5.099037 34.25566 -0.781249
2003-06-25 07:05:42 51°14.06 2°55.46 40.489606 5.099037 34.25566 -0.781249
2003-06-25 07:05:46 51°14.07 2°55.45 41.286668 5.098932 34.254864 -0.781249
2003-06-25 07:05:52 51°14.08 2°55.45 40.960487 5.098932 34.255378 -0.74754
2003-06-25 07:05:56 51°14.09 2°55.44 40.819875 5.098826 34.255096 -0.781249
2003-06-25 07:06:00 51°14.09 2°55.44 41.885582 5.098721 34.255329 -0.781249
2003-06-25 07:06:04 51°14.1 2°55.43 42.915902 5.098721 34.255329 -0.781249
2003-06-25 07:06:12 51°14.11 2°55.42 42.915902 5.098721 34.255329 -0.781249
2003-06-25 07:06:16 51°14.12 2°55.42 41.246835 5.098721 34.255843 -0.781249
2003-06-25 07:06:22 51°14.13 2°55.41 42.56863 5.098721 34.256358 -0.781249
2003-06-25 07:06:26 51°14.14 2°55.4 40.392322 5.098615 34.256076 -0.781249
2003-06-25 07:06:32 51°14.15 2°55.39 40.515916 5.098509 34.255793 -0.781249
2003-06-25 07:06:36 51°14.16 2°55.39 40.515916 5.098509 34.255793 -0.781249
2003-06-25 07:06:40 51°14.16 2°55.38 40.106413 5.098404 34.254997 -0.781249
2003-06-25 07:06:46 51°14.17 2°55.37 41.761871 5.098404 34.255511 -0.74754
2003-06-25 07:06:52 51°14.18 2°55.36 39.97219 5.098404 34.256026 -0.781249
2003-06-25 07:06:56 51°14.19 2°55.35 40.989439 5.098404 34.256541 -0.781249
2003-06-25 07:07:02 51°14.2 2°55.34 41.508858 5.098298 34.256258 -0.71383
2003-06-25 07:07:06 51°14.21 2°55.33 42.305536 5.098193 34.255462 -0.781249
2003-06-25 07:07:12 51°14.22 2°55.32 42.305536 5.098193 34.255462 -0.781249
2003-06-25 07:07:16 51°14.22 2°55.31 41.631243 5.098087 34.254665 -0.781249
2003-06-25 07:07:22 51°14.23 2°55.3 40.081057 5.098087 34.255694 -0.781249
2003-06-25 07:07:26 51°14.24 2°55.29 39.904622 5.098193 34.256491 -0.781249
2003-06-25 07:07:32 51°14.25 2°55.28 40.102658 5.097876 34.254615 -0.781249
2003-06-25 07:07:36 51°14.26 2°55.27 40.102658 5.097876 34.254615 -0.781249
2003-06-25 07:07:42 51°14.27 2°55.25 38.665685 5.097771 34.253818 -0.74754
2003-06-25 07:07:46 51°14.27 2°55.24 39.849699 5.097876 34.25513 -0.74754
2003-06-25 07:07:52 51°14.28 2°55.22 36.60396 5.097982 34.256441 -0.74754
2003-06-25 07:07:56 51°14.29 2°55.21 36.244647 5.097982 34.256956 -0.781249
2003-06-25 07:08:02 51°14.3 2°55.19 32.413326 5.097876 34.256159 -0.781249
2003-06-25 07:08:06 51°14.3 2°55.18 35.279349 5.097559 34.253768 -0.781249
2003-06-25 07:08:12 51°14.31 2°55.16 35.279349 5.097559 34.253768 -0.781249
2003-06-25 07:08:16 51°14.32 2°55.14 37.021 5.097665 34.255595 -0.814958
2003-06-25 07:08:22 51°14.33 2°55.12 37.600747 5.097771 34.255877 -0.781249
2003-06-25 07:08:26 51°14.34 2°55.11 36.548911 5.097665 34.25508 -0.814958
2003-06-25 07:08:32 51°14.35 2°55.09 37.253429 5.097454 34.254516 -0.74754
2003-06-25 07:08:36 51°14.35 2°55.08 36.626934 5.097348 34.254234 -0.781249
2003-06-25 07:08:42 51°14.37 2°55.06 36.626934 5.097348 34.254234 -0.781249
2003-06-25 07:08:44 51°14.37 2°55.05 36.567719 5.097348 34.254234 -0.781249
2003-06-25 07:08:52 51°14.39 2°55.02 36.468247 5.09756 34.256342 -0.74754
2003-06-25 07:08:56 51°14.39 2°55.01 37.333913 5.097243 34.254466 -0.74754
2003-06-25 07:09:02 51°14.41 2°54.99 36.816405 5.096926 34.25259 -0.781249
2003-06-25 07:09:06 51°14.42 2°54.98 37.303111 5.097032 34.254417 -0.781249
2003-06-25 07:09:12 51°14.43 2°54.96 37.303111 5.097032 34.254417 -0.781249
2003-06-25 07:09:16 51°14.44 2°54.95 37.149242 5.097243 34.254981 -0.781249
2003-06-25 07:09:20 51°14.45 2°54.94 37.969987 5.097348 34.256293 -0.781249
2003-06-25 07:09:26 51°14.47 2°54.92 36.835667 5.096926 34.254649 -0.781249
2003-06-25 07:09:32 51°14.48 2°54.9 37.786617 5.097137 34.255728 -0.781249
2003-06-25 07:09:36 51°14.49 2°54.89 36.467403 5.096926 34.255164 -0.781249
2003-06-25 07:09:42 51°14.51 2°54.88 36.467403 5.096926 34.255164 -0.781249
2003-06-25 07:09:46 51°14.52 2°54.87 36.811848 5.097032 34.256476 -0.74754
2003-06-25 07:09:52 51°14.54 2°54.85 37.18361 5.096926 34.256194 -0.781249
2003-06-25 07:09:56 51°14.55 2°54.84 37.419 5.096715 34.255114 -0.781249
2003-06-25 07:10:02 51°14.57 2°54.82 36.78495 5.096821 34.255911 -0.74754
2003-06-25 07:10:06 51°14.58 2°54.81 36.861029 5.097137 34.257788 -0.781249
2003-06-25 07:10:12 51°14.6 2°54.79 36.861029 5.097137 34.257788 -0.781249
2003-06-25 07:10:16 51°14.61 2°54.78 37.828661 5.096398 34.253238 -0.781249
2003-06-25 07:10:22 51°14.62 2°54.76 37.069376 5.096821 34.256426 -0.781249
2003-06-25 07:10:26 51°14.64 2°54.75 36.329668 5.096504 34.25455 -0.781249
2003-06-25 07:10:32 51°14.65 2°54.73 36.883833 5.096398 34.254268 -0.74754
2003-06-25 07:10:36 51°14.66 2°54.72 36.433536 5.09661 34.255862 -0.781249
2003-06-25 07:10:42 51°14.68 2°54.7 36.433536 5.09661 34.255862 -0.781249
2003-06-25 07:10:46 51°14.69 2°54.69 36.431555 5.096187 34.253703 -0.781249
2003-06-25 07:10:52 51°14.71 2°54.67 36.460553 5.09661 34.257407 -0.781249
2003-06-25 07:10:56 51°14.72 2°54.66 35.284028 5.096504 34.25661 -0.74754
2003-06-25 07:11:02 51°14.74 2°54.64 36.491163 5.096082 34.253936 -0.74754
2003-06-25 07:11:06 51°14.75 2°54.63 36.491163 5.096082 34.253936 -0.74754
2003-06-25 07:11:12 51°14.77 2°54.61 36.536295 5.096398 34.255813 -0.781249
2003-06-25 07:11:16 51°14.78 2°54.6 37.010973 5.095976 34.253139 -0.74754
2003-06-25 07:11:20 51°14.79 2°54.59 35.832534 5.096293 34.256045 -0.781249
2003-06-25 07:11:24 51°14.81 2°54.58 36.932357 5.095871 34.253372 -0.74754
2003-06-25 07:11:32 51°14.83 2°54.55 39.786952 5.096187 34.256278 -0.781249
2003-06-25 07:11:36 51°14.84 2°54.54 39.786952 5.096187 34.256278 -0.781249
2003-06-25 07:11:42 51°14.86 2°54.52 38.398249 5.096293 34.257075 -0.781249
2003-06-25 07:11:46 51°14.87 2°54.51 37.537958 5.095976 34.255199 -0.781249
2003-06-25 07:11:52 51°14.89 2°54.49 37.842607 5.095765 34.254634 -0.74754
2003-06-25 07:11:56 51°14.9 2°54.48 38.118856 5.096187 34.257308 -0.781249
2003-06-25 07:12:02 51°14.92 2°54.46 37.454921 5.095554 34.253555 -0.814958
2003-06-25 07:12:06 51°14.93 2°54.45 37.663167 5.095871 34.255947 -0.74754
2003-06-25 07:12:12 51°14.95 2°54.43 37.663167 5.095871 34.255947 -0.74754
2003-06-25 07:12:16 51°14.96 2°54.42 37.855498 5.09566 34.254352 -0.74754
2003-06-25 07:12:20 51°14.97 2°54.4 38.316128 5.095976 34.257259 -0.814958
2003-06-25 07:12:26 51°14.99 2°54.38 37.606636 5.09566 34.255382 -0.74754
2003-06-25 07:12:32 51°15.01 2°54.36 39.349806 5.095449 34.254818 -0.814958
2003-06-25 07:12:36 51°15.02 2°54.35 35.786542 5.095765 34.257209 -0.74754
2003-06-25 07:12:42 51°15.04 2°54.33 35.786542 5.095765 34.257209 -0.74754
2003-06-25 07:12:46 51°15.05 2°54.32 36.102644 5.095554 34.2551 -0.74754
2003-06-25 07:12:52 51°15.07 2°54.3 35.539758 5.095343 34.254536 -0.74754
2003-06-25 07:12:56 51°15.08 2°54.29 36.023614 5.095237 34.254253 -0.74754
2003-06-25 07:13:02 51°15.1 2°54.27 38.932082 5.09566 34.257442 -0.781249
2003-06-25 07:13:06 51°15.12 2°54.26 38.01426 5.095237 34.255283 -0.781249
2003-06-25 07:13:12 51°15.13 2°54.24 38.01426 5.095237 34.255283 -0.781249
2003-06-25 07:13:16 51°15.15 2°54.22 38.86109 5.095343 34.256081 -0.781249
2003-06-25 07:13:22 51°15.17 2°54.2 37.454665 5.095449 34.256363 -0.74754
2003-06-25 07:13:26 51°15.18 2°54.19 38.453498 5.094921 34.253407 -0.74754
2003-06-25 07:13:32 51°15.2 2°54.17 38.505798 5.09566 34.258473 -0.781249
2003-06-25 07:13:36 51°15.21 2°54.16 38.505798 5.09566 34.258473 -0.781249
2003-06-25 07:13:42 51°15.23 2°54.14 36.935294 5.095132 34.255516 -0.814958
2003-06-25 07:13:46 51°15.24 2°54.13 37.010747 5.095026 34.255749 -0.781249
2003-06-25 07:13:52 51°15.26 2°54.11 37.011585 5.095237 34.256829 -0.781249
2003-06-25 07:13:56 51°15.27 2°54.09 38.296363 5.094921 34.254952 -0.781249
2003-06-25 07:14:02 51°15.29 2°54.07 39.21781 5.094815 34.255185 -0.74754
2003-06-25 07:14:06 51°15.3 2°54.06 39.295259 5.094815 34.25467 -0.781249
2003-06-25 07:14:12 51°15.32 2°54.04 39.295259 5.094815 34.25467 -0.781249
2003-06-25 07:14:16 51°15.34 2°54.03 38.768463 5.09471 34.254387 -0.781249
2003-06-25 07:14:20 51°15.35 2°54.01 38.498044 5.094815 34.256215 -0.74754
2003-06-25 07:14:24 51°15.36 2°54 37.426314 5.094815 34.256215 -0.781249
2003-06-25 07:14:32 51°15.39 2°53.97 39.114973 5.094393 34.253541 -0.781249
2003-06-25 07:14:36 51°15.4 2°53.96 38.728485 5.094604 34.255651 -0.781249
2003-06-25 07:14:42 51°15.42 2°53.94 38.728485 5.094604 34.255651 -0.781249
2003-06-25 07:14:46 51°15.43 2°53.92 37.738577 5.094815 34.257245 -0.781249
2003-06-25 07:14:52 51°15.45 2°53.9 38.606535 5.094499 34.255884 -0.781249
2003-06-25 07:14:56 51°15.46 2°53.89 39.456881 5.094393 34.254571 -0.781249
2003-06-25 07:15:02 51°15.48 2°53.87 39.043325 5.09471 34.257479 -0.781249
2003-06-25 07:15:06 51°15.5 2°53.85 39.043325 5.09471 34.257479 -0.781249
2003-06-25 07:15:12 51°15.51 2°53.83 39.301935 5.094287 34.254289 -0.781249
2003-06-25 07:15:16 51°15.53 2°53.82 39.429883 5.094393 34.255601 -0.74754
2003-06-25 07:15:20 51°15.54 2°53.81 38.966956 5.094182 34.255037 -0.781249
2003-06-25 07:15:26 51°15.56 2°53.79 37.982348 5.094393 34.256117 -0.781249
2003-06-25 07:15:32 51°15.58 2°53.77 38.679297 5.094604 34.258227 -0.781249
2003-06-25 07:15:36 51°15.59 2°53.75 39.093737 5.094076 34.254755 -0.74754
2003-06-25 07:15:40 51°15.6 2°53.74 39.093737 5.094076 34.254755 -0.74754
2003-06-25 07:15:46 51°15.62 2°53.72 38.901885 5.094288 34.256865 -0.74754
2003-06-25 07:15:52 51°15.65 2°53.7 37.664703 5.094076 34.254755 -0.74754
2003-06-25 07:15:56 51°15.66 2°53.69 37.657443 5.093865 34.25419 -0.781249
2003-06-25 07:16:02 51°15.68 2°53.67 38.902641 5.094288 34.25738 -0.74754
2003-06-25 07:16:06 51°15.69 2°53.66 38.160759 5.093654 34.253626 -0.781249
2003-06-25 07:16:12 51°15.71 2°53.64 38.160759 5.093654 34.253626 -0.781249
2003-06-25 07:16:16 51°15.73 2°53.63 38.756979 5.094076 34.256816 -0.781249
2003-06-25 07:16:22 51°15.75 2°53.61 38.524911 5.093865 34.255736 -0.74754
2003-06-25 07:16:26 51°15.76 2°53.6 38.626351 5.094182 34.258644 -0.74754
2003-06-25 07:16:32 51°15.78 2°53.58 38.836131 5.09376 34.254939 -0.814958
2003-06-25 07:16:36 51°15.8 2°53.57 37.734455 5.093654 34.255172 -0.781249
2003-06-25 07:16:42 51°15.82 2°53.55 37.734455 5.093654 34.255172 -0.781249
2003-06-25 07:16:46 51°15.83 2°53.54 38.223698 5.093865 34.256251 -0.74754
2003-06-25 07:16:52 51°15.85 2°53.53 37.821033 5.093654 34.254656 -0.781249
2003-06-25 07:16:56 51°15.87 2°53.52 37.218254 5.093443 34.254607 -0.781249
2003-06-25 07:17:00 51°15.88 2°53.51 37.865611 5.093549 34.255405 -0.781249
2003-06-25 07:17:04 51°15.9 2°53.5 37.808967 5.093865 34.257797 -0.781249
2003-06-25 07:17:12 51°15.92 2°53.48 37.808967 5.093865 34.257797 -0.781249
2003-06-25 07:17:16 51°15.94 2°53.47 38.67137 5.093549 34.25592 -0.781249
2003-06-25 07:17:22 51°15.96 2°53.46 37.927348 5.093443 34.256153 -0.781249
2003-06-25 07:17:26 51°15.97 2°53.45 37.785947 5.093654 34.257233 -0.814958
2003-06-25 07:17:32 51°16 2°53.43 38.049055 5.093338 34.255356 -0.74754
2003-06-25 07:17:36 51°16.01 2°53.42 38.127792 5.093443 34.256153 -0.74754
2003-06-25 07:17:40 51°16.03 2°53.41 38.127792 5.093443 34.256153 -0.74754
2003-06-25 07:17:46 51°16.05 2°53.4 38.371973 5.093232 34.255589 -0.74754
2003-06-25 07:17:52 51°16.07 2°53.38 37.97072 5.093654 34.258779 -0.74754
2003-06-25 07:17:56 51°16.08 2°53.37 38.465785 5.093232 34.255589 -0.814958
2003-06-25 07:18:02 51°16.1 2°53.35 35.628984 5.092915 34.254227 -0.781249
2003-06-25 07:18:06 51°16.12 2°53.34 35.628984 5.092915 34.254227 -0.781249
2003-06-25 07:18:12 51°16.14 2°53.33 38.002891 5.093338 34.257933 -0.781249
2003-06-25 07:18:16 51°16.15 2°53.32 38.681666 5.093232 34.25662 -0.781249
2003-06-25 07:18:22 51°16.18 2°53.3 36.80674 5.093126 34.256853 -0.781249
2003-06-25 07:18:26 51°16.19 2°53.29 37.772151 5.093021 34.256571 -0.781249
2003-06-25 07:18:32 51°16.21 2°53.28 37.168487 5.093021 34.256055 -0.781249
2003-06-25 07:18:36 51°16.23 2°53.27 37.82681 5.09281 34.254975 -0.781249
2003-06-25 07:18:42 51°16.25 2°53.25 37.82681 5.09281 34.254975 -0.781249
2003-06-25 07:18:46 51°16.26 2°53.24 37.151462 5.09281 34.254975 -0.781249
2003-06-25 07:18:52 51°16.28 2°53.22 38.424326 5.092704 34.255208 -0.74754
2003-06-25 07:18:56 51°16.29 2°53.21 38.240878 5.092915 34.256804 -0.74754
2003-06-25 07:19:02 51°16.31 2°53.19 38.689623 5.092599 34.255442 -0.781249
2003-06-25 07:19:06 51°16.33 2°53.18 38.421379 5.093127 34.258399 -0.71383
2003-06-25 07:19:12 51°16.35 2°53.16 38.421379 5.093127 34.258399 -0.71383
2003-06-25 07:19:16 51°16.36 2°53.15 38.482755 5.092282 34.253564 -0.74754
2003-06-25 07:19:22 51°16.38 2°53.13 37.757522 5.092915 34.257835 -0.781249
2003-06-25 07:19:26 51°16.4 2°53.11 38.369025 5.092176 34.253282 -0.74754
2003-06-25 07:19:32 51°16.42 2°53.1 39.596421 5.09281 34.257553 -0.781249
2003-06-25 07:19:36 51°16.43 2°53.08 37.721001 5.092176 34.253797 -0.814958
2003-06-25 07:19:42 51°16.45 2°53.07 37.721001 5.092176 34.253797 -0.814958
2003-06-25 07:19:44 51°16.46 2°53.06 38.233797 5.09281 34.258584 -0.74754
2003-06-25 07:19:52 51°16.48 2°53.03 37.722407 5.092493 34.255675 -0.74754
2003-06-25 07:19:56 51°16.5 2°53.02 39.092637 5.092388 34.255908 -0.74754
2003-06-25 07:20:02 51°16.52 2°53 37.572833 5.092177 34.254828 -0.781249
2003-06-25 07:20:06 51°16.53 2°52.99 37.969637 5.092282 34.255626 -0.781249
2003-06-25 07:20:12 51°16.55 2°52.97 37.969637 5.092282 34.255626 -0.781249
2003-06-25 07:20:16 51°16.57 2°52.96 37.814457 5.092388 34.257455 -0.781249
2003-06-25 07:20:20 51°16.58 2°52.95 39.428788 5.092282 34.256141 -0.814958
2003-06-25 07:20:26 51°16.6 2°52.93 38.050138 5.091965 34.254264 -0.781249
2003-06-25 07:20:32 51°16.62 2°52.91 37.781061 5.092493 34.258768 -0.74754
2003-06-25 07:20:36 51°16.63 2°52.9 38.550663 5.09186 34.254497 -0.781249
2003-06-25 07:20:42 51°16.66 2°52.88 38.550663 5.09186 34.254497 -0.781249
2003-06-25 07:20:46 51°16.67 2°52.87 37.812095 5.092282 34.257173 -0.74754
2003-06-25 07:20:52 51°16.69 2°52.85 37.761546 5.092071 34.256092 -0.74754
2003-06-25 07:20:56 51°16.7 2°52.84 38.058699 5.091965 34.25581 -0.781249
2003-06-25 07:21:02 51°16.72 2°52.82 38.501494 5.091754 34.254215 -0.74754
2003-06-25 07:21:06 51°16.74 2°52.81 37.291737 5.091754 34.255246 -0.781249
2003-06-25 07:21:12 51°16.76 2°52.79 37.291737 5.091754 34.255246 -0.781249
2003-06-25 07:21:16 51°16.77 2°52.78 37.653476 5.092282 34.258719 -0.74754
2003-06-25 07:21:22 51°16.79 2°52.76 36.813819 5.091543 34.254166 -0.781249
2003-06-25 07:21:26 51°16.8 2°52.75 37.049204 5.09186 34.257075 -0.74754
2003-06-25 07:21:32 51°16.82 2°52.73 37.704573 5.091649 34.255479 -0.781249
2003-06-25 07:21:36 51°16.84 2°52.72 37.704573 5.091649 34.255479 -0.781249
2003-06-25 07:21:40 51°16.85 2°52.71 36.390231 5.091965 34.257357 -0.74754
2003-06-25 07:21:46 51°16.87 2°52.69 37.690219 5.09186 34.25759 -0.781249
2003-06-25 07:21:52 51°16.89 2°52.67 37.31747 5.091649 34.25651 -0.781249
2003-06-25 07:21:56 51°16.9 2°52.66 37.107226 5.091543 34.255712 -0.781249
2003-06-25 07:22:00 51°16.91 2°52.65 37.808903 5.091754 34.257824 -0.781249
2003-06-25 07:22:06 51°16.93 2°52.63 37.808903 5.091754 34.257824 -0.781249
2003-06-25 07:22:12 51°16.95 2°52.61 37.160378 5.091438 34.255946 -0.781249
2003-06-25 07:22:16 51°16.97 2°52.6 37.829842 5.09186 34.258622 -0.781249
2003-06-25 07:22:22 51°16.99 2°52.58 36.929614 5.091649 34.257026 -0.74754
2003-06-25 07:22:26 51°17 2°52.57 36.974239 5.091332 34.255664 -0.781249
2003-06-25 07:22:32 51°17.02 2°52.56 36.372551 5.091332 34.255664 -0.781249
2003-06-25 07:22:36 51°17.03 2°52.54 37.054457 5.091543 34.257775 -0.74754
2003-06-25 07:22:42 51°17.05 2°52.53 37.054457 5.091543 34.257775 -0.74754
2003-06-25 07:22:46 51°17.07 2°52.52 36.9055 5.091438 34.256977 -0.781249
2003-06-25 07:22:52 51°17.09 2°52.5 37.417749 5.091332 34.256695 -0.74754
2003-06-25 07:22:56 51°17.1 2°52.49 37.582277 5.091227 34.256413 -0.781249
2003-06-25 07:23:02 51°17.12 2°52.47 36.419764 5.091332 34.257726 -0.781249
2003-06-25 07:23:06 51°17.13 2°52.46 36.685296 5.091332 34.257726 -0.781249
2003-06-25 07:23:12 51°17.15 2°52.44 36.685296 5.091332 34.257726 -0.781249
2003-06-25 07:23:16 51°17.17 2°52.43 36.447208 5.091332 34.257726 -0.74754
2003-06-25 07:23:22 51°17.19 2°52.41 37.058324 5.091227 34.257444 -0.74754
2003-06-25 07:23:26 51°17.2 2°52.4 36.972949 5.09091 34.255566 -0.814958
2003-06-25 07:23:32 51°17.22 2°52.38 36.922222 5.091438 34.260071 -0.74754
2003-06-25 07:23:36 51°17.23 2°52.37 35.305017 5.091016 34.256364 -0.781249
2003-06-25 07:23:42 51°17.25 2°52.35 35.305017 5.091016 34.256364 -0.781249
2003-06-25 07:23:44 51°17.26 2°52.35 37.765252 5.091227 34.258476 -0.781249
2003-06-25 07:23:52 51°17.29 2°52.32 36.208828 5.090699 34.255517 -0.781249
2003-06-25 07:23:56 51°17.3 2°52.31 37.513514 5.090699 34.256549 -0.814958
2003-06-25 07:24:02 51°17.32 2°52.29 36.297076 5.09091 34.257113 -0.781249
2003-06-25 07:24:06 51°17.33 2°52.28 37.950869 5.090804 34.257347 -0.781249
2003-06-25 07:24:12 51°17.35 2°52.26 37.950869 5.090804 34.257347 -0.781249
2003-06-25 07:24:16 51°17.37 2°52.25 36.768134 5.091016 34.258427 -0.74754
2003-06-25 07:24:22 51°17.39 2°52.23 36.795458 5.09091 34.258145 -0.74754
2003-06-25 07:24:26 51°17.4 2°52.22 39.100617 5.090699 34.257064 -0.814958
2003-06-25 07:24:32 51°17.42 2°52.2 38.418116 5.090699 34.258096 -0.781249
2003-06-25 07:24:36 51°17.43 2°52.18 38.185674 5.090382 34.256218 -0.74754
2003-06-25 07:24:42 51°17.44 2°52.16 38.185674 5.090382 34.256218 -0.74754
2003-06-25 07:24:46 51°17.45 2°52.14 36.873789 5.090699 34.259128 -0.781249
2003-06-25 07:24:52 51°17.47 2°52.11 37.829427 5.090699 34.258612 -0.781249
2003-06-25 07:24:56 51°17.47 2°52.09 37.53232 5.090593 34.257814 -0.781249
2003-06-25 07:25:00 51°17.48 2°52.07 38.394446 5.090593 34.25833 -0.781249
2003-06-25 07:25:06 51°17.5 2°52.04 36.348268 5.090488 34.257016 -0.781249
2003-06-25 07:25:12 51°17.51 2°52.01 36.348268 5.090488 34.257016 -0.781249
2003-06-25 07:25:16 51°17.52 2°51.99 37.201465 5.090488 34.257531 -0.781249
2003-06-25 07:25:22 51°17.53 2°51.96 37.830863 5.090699 34.258612 -0.781249
2003-06-25 07:25:26 51°17.54 2°51.94 36.540738 5.090382 34.257249 -0.781249
2003-06-25 07:25:32 51°17.55 2°51.91 36.797559 5.090488 34.258563 -0.74754
2003-06-25 07:25:36 51°17.56 2°51.89 36.797559 5.090488 34.258563 -0.74754
2003-06-25 07:25:42 51°17.57 2°51.86 37.228834 5.090488 34.258047 -0.74754
2003-06-25 07:25:46 51°17.58 2°51.84 37.3535 5.090171 34.256685 -0.781249
2003-06-25 07:25:52 51°17.59 2°51.81 37.667261 5.090277 34.257483 -0.781249
2003-06-25 07:25:56 51°17.6 2°51.79 37.08964 5.090277 34.257999 -0.781249
2003-06-25 07:26:02 51°17.62 2°51.77 37.834661 5.090382 34.258281 -0.781249
2003-06-25 07:26:04 51°17.62 2°51.76 37.563931 5.089854 34.255322 -0.781249
2003-06-25 07:26:12 51°17.64 2°51.72 37.563931 5.089854 34.255322 -0.781249
2003-06-25 07:26:16 51°17.65 2°51.7 38.004547 5.090171 34.258232 -0.74754
2003-06-25 07:26:22 51°17.66 2°51.67 38.687413 5.090382 34.260345 -0.781249
2003-06-25 07:26:26 51°17.67 2°51.65 37.429907 5.090066 34.257434 -0.781249
2003-06-25 07:26:32 51°17.68 2°51.62 38.474397 5.090171 34.259264 -0.781249
2003-06-25 07:26:36 51°17.69 2°51.6 36.23908 5.089854 34.25687 -0.781249
2003-06-25 07:26:40 51°17.7 2°51.58 36.23908 5.089854 34.25687 -0.781249
2003-06-25 07:26:46 51°17.71 2°51.55 38.370007 5.089538 34.255507 -0.74754
2003-06-25 07:26:52 51°17.72 2°51.52 37.096275 5.089855 34.257902 -0.781249
2003-06-25 07:26:56 51°17.73 2°51.5 37.247225 5.089855 34.257902 -0.74754
2003-06-25 07:27:02 51°17.74 2°51.47 37.927188 5.090277 34.260062 -0.781249
2003-06-25 07:27:06 51°17.75 2°51.45 37.272875 5.089432 34.254709 -0.781249
2003-06-25 07:27:12 51°17.77 2°51.42 37.272875 5.089432 34.254709 -0.781249
2003-06-25 07:27:16 51°17.77 2°51.4 38.396315 5.089749 34.257103 -0.74754
2003-06-25 07:27:20 51°17.78 2°51.38 38.819866 5.089643 34.257337 -0.814958
2003-06-25 07:27:26 51°17.8 2°51.35 37.246871 5.089538 34.256539 -0.781249
2003-06-25 07:27:32 51°17.81 2°51.32 37.887428 5.08996 34.259216 -0.74754
2003-06-25 07:27:36 51°17.82 2°51.3 37.903596 5.089643 34.257853 -0.781249
2003-06-25 07:27:42 51°17.83 2°51.27 37.903596 5.089643 34.257853 -0.781249
2003-06-25 07:27:46 51°17.84 2°51.26 38.42328 5.089749 34.258651 -0.781249
2003-06-25 07:27:52 51°17.85 2°51.23 37.642505 5.089538 34.258087 -0.74754
2003-06-25 07:27:56 51°17.86 2°51.21 38.708314 5.089855 34.259965 -0.781249
2003-06-25 07:28:02 51°17.88 2°51.18 37.85151 5.089643 34.259401 -0.781249
2003-06-25 07:28:06 51°17.89 2°51.16 37.850297 5.089116 34.255926 -0.74754
2003-06-25 07:28:12 51°17.9 2°51.13 37.850297 5.089116 34.255926 -0.74754
2003-06-25 07:28:16 51°17.91 2°51.11 38.612856 5.089221 34.256208 -0.74754
2003-06-25 07:28:22 51°17.92 2°51.08 38.322187 5.089432 34.25832 -0.781249
2003-06-25 07:28:26 51°17.93 2°51.06 38.767895 5.089432 34.25832 -0.781249
2003-06-25 07:28:32 51°17.94 2°51.03 37.276731 5.089221 34.25724 -0.781249
2003-06-25 07:28:36 51°17.95 2°51.01 37.276731 5.089221 34.25724 -0.781249
2003-06-25 07:28:40 51°17.96 2°50.99 37.751101 5.089327 34.258038 -0.781249
2003-06-25 07:28:44 51°17.97 2°50.97 37.751708 5.089327 34.258038 -0.781249
2003-06-25 07:28:52 51°17.99 2°50.93 38.247737 5.089116 34.256958 -0.74754
2003-06-25 07:28:56 51°18 2°50.91 38.090771 5.089116 34.257474 -0.781249
2003-06-25 07:29:02 51°18.01 2°50.88 37.953896 5.089116 34.257474 -0.781249
2003-06-25 07:29:06 51°18.02 2°50.86 37.621997 5.089116 34.257474 -0.814958
2003-06-25 07:29:12 51°18.03 2°50.83 37.621997 5.089116 34.257474 -0.814958
2003-06-25 07:29:16 51°18.04 2°50.81 37.227419 5.089116 34.25799 -0.74754
2003-06-25 07:29:22 51°18.05 2°50.78 37.464091 5.089221 34.258788 -0.781249
2003-06-25 07:29:26 51°18.06 2°50.76 38.22408 5.08901 34.25874 -0.781249
2003-06-25 07:29:32 51°18.08 2°50.73 37.493261 5.088905 34.257425 -0.74754
2003-06-25 07:29:36 51°18.09 2°50.71 37.493261 5.088905 34.257425 -0.74754
2003-06-25 07:29:40 51°18.09 2°50.69 38.510292 5.08901 34.258223 -0.74754
2003-06-25 07:29:46 51°18.11 2°50.66 37.283608 5.088588 34.255546 -0.781249
2003-06-25 07:29:52 51°18.12 2°50.64 38.194475 5.088799 34.257143 -0.74754
2003-06-25 07:29:56 51°18.13 2°50.62 38.102764 5.088799 34.257659 -0.781249
2003-06-25 07:30:02 51°18.14 2°50.59 36.678076 5.088693 34.257377 -0.781249
2003-06-25 07:30:06 51°18.15 2°50.57 37.69818 5.088905 34.258973 -0.74754
2003-06-25 07:30:12 51°18.17 2°50.54 37.69818 5.088905 34.258973 -0.74754
2003-06-25 07:30:16 51°18.17 2°50.52 37.443922 5.088588 34.257611 -0.781249
2003-06-25 07:30:22 51°18.19 2°50.49 37.124679 5.088693 34.258409 -0.781249
2003-06-25 07:30:26 51°18.2 2°50.47 37.573441 5.088693 34.258409 -0.781249
2003-06-25 07:30:32 51°18.21 2°50.44 36.730026 5.088482 34.257844 -0.814958
2003-06-25 07:30:36 51°18.22 2°50.42 36.99543 5.088482 34.257844 -0.781249
2003-06-25 07:30:42 51°18.23 2°50.39 36.99543 5.088482 34.257844 -0.781249
2003-06-25 07:30:46 51°18.24 2°50.37 37.163918 5.088905 34.260522 -0.781249
2003-06-25 07:30:52 51°18.25 2°50.34 37.81018 5.088588 34.258127 -0.781249
2003-06-25 07:30:56 51°18.26 2°50.32 35.015927 5.08806 34.255683 -0.74754
2003-06-25 07:31:02 51°18.27 2°50.29 34.363385 5.088377 34.257562 -0.814958
2003-06-25 07:31:06 51°18.28 2°50.27 35.654867 5.088377 34.257562 -0.781249
2003-06-25 07:31:12 51°18.3 2°50.24 35.654867 5.088377 34.257562 -0.781249
2003-06-25 07:31:16 51°18.31 2°50.22 35.550137 5.08806 34.255683 -0.74754
2003-06-25 07:31:22 51°18.32 2°50.19 35.418988 5.088694 34.260473 -0.74754
2003-06-25 07:31:26 51°18.33 2°50.17 34.091544 5.088377 34.258078 -0.781249
2003-06-25 07:31:32 51°18.34 2°50.14 35.423396 5.087955 34.256433 -0.74754
2003-06-25 07:31:36 51°18.35 2°50.12 35.233923 5.088377 34.258594 -0.781249
2003-06-25 07:31:40 51°18.36 2°50.11 35.233923 5.088377 34.258594 -0.781249
2003-06-25 07:31:44 51°18.37 2°50.09 36.227163 5.087955 34.255917 -0.74754
2003-06-25 07:31:52 51°18.39 2°50.05 36.042775 5.088271 34.259344 -0.74754
2003-06-25 07:31:56 51°18.39 2°50.03 35.80049 5.088166 34.25803 -0.74754
2003-06-25 07:32:02 51°18.41 2°50 37.051525 5.087955 34.256949 -0.814958
2003-06-25 07:32:06 51°18.42 2°49.98 36.523027 5.08806 34.257231 -0.781249
2003-06-25 07:32:12 51°18.43 2°49.95 36.523027 5.08806 34.257231 -0.781249
2003-06-25 07:32:16 51°18.44 2°49.93 35.348228 5.087743 34.255352 -0.781249
2003-06-25 07:32:22 51°18.45 2°49.9 36.413429 5.08806 34.258264 -0.74754
2003-06-25 07:32:26 51°18.46 2°49.88 37.524087 5.088271 34.259861 -0.781249
2003-06-25 07:32:32 51°18.47 2°49.85 37.726242 5.08806 34.25878 -0.74754
2003-06-25 07:32:36 51°18.48 2°49.83 37.104488 5.08806 34.259296 -0.74754
2003-06-25 07:32:42 51°18.5 2°49.8 37.104488 5.08806 34.259296 -0.74754
2003-06-25 07:32:46 51°18.51 2°49.78 37.709431 5.088482 34.261974 -0.74754
2003-06-25 07:32:52 51°18.52 2°49.75 34.277082 5.087849 34.258215 -0.814958
2003-06-25 07:32:56 51°18.53 2°49.73 35.154812 5.087849 34.258215 -0.74754
2003-06-25 07:33:02 51°18.54 2°49.7 35.478114 5.088166 34.260611 -0.74754
2003-06-25 07:33:06 51°18.55 2°49.69 35.478114 5.088166 34.260611 -0.74754
2003-06-25 07:33:12 51°18.56 2°49.66 36.126513 5.08806 34.259812 -0.781249
2003-06-25 07:33:16 51°18.57 2°49.64 36.309666 5.087427 34.255538 -0.781249
2003-06-25 07:33:22 51°18.58 2°49.61 35.398161 5.087532 34.256336 -0.74754
2003-06-25 07:33:26 51°18.59 2°49.59 37.761291 5.087638 34.257651 -0.74754
2003-06-25 07:33:32 51°18.61 2°49.56 37.919952 5.087849 34.259248 -0.781249
2003-06-25 07:33:36 51°18.62 2°49.54 38.263292 5.087638 34.258167 -0.781249
2003-06-25 07:33:42 51°18.63 2°49.51 38.263292 5.087638 34.258167 -0.781249
2003-06-25 07:33:46 51°18.64 2°49.49 38.649606 5.087744 34.258966 -0.74754
2003-06-25 07:33:52 51°18.65 2°49.46 37.199406 5.087532 34.258401 -0.781249
2003-06-25 07:33:56 51°18.66 2°49.44 38.422932 5.087427 34.257086 -0.781249
2003-06-25 07:34:02 51°18.67 2°49.42 37.656355 5.087638 34.258683 -0.74754
2003-06-25 07:34:06 51°18.68 2°49.4 38.30439 5.087638 34.258683 -0.814958
2003-06-25 07:34:12 51°18.7 2°49.37 38.30439 5.087638 34.258683 -0.814958
2003-06-25 07:34:16 51°18.71 2°49.35 36.994817 5.087427 34.257603 -0.781249
2003-06-25 07:34:22 51°18.72 2°49.32 38.382877 5.087532 34.258917 -0.781249
2003-06-25 07:34:26 51°18.73 2°49.3 38.124103 5.087005 34.255441 -0.74754
2003-06-25 07:34:32 51°18.74 2°49.27 37.754902 5.087321 34.258869 -0.814958
2003-06-25 07:34:36 51°18.75 2°49.25 38.907805 5.087849 34.261829 -0.74754
2003-06-25 07:34:42 51°18.76 2°49.22 38.907805 5.087849 34.261829 -0.74754
2003-06-25 07:34:44 51°18.77 2°49.21 38.883018 5.087427 34.259151 -0.781249
2003-06-25 07:34:52 51°18.79 2°49.17 39.501097 5.087216 34.257554 -0.74754
2003-06-25 07:34:56 51°18.8 2°49.15 38.641518 5.087532 34.25995 -0.74754
2003-06-25 07:35:02 51°18.81 2°49.12 39.099486 5.08711 34.256756 -0.814958
2003-06-25 07:35:06 51°18.82 2°49.1 38.232781 5.087533 34.260983 -0.74754
2003-06-25 07:35:12 51°18.83 2°49.07 38.232781 5.087533 34.260983 -0.74754
2003-06-25 07:35:16 51°18.84 2°49.06 39.027918 5.087744 34.262064 -0.74754
2003-06-25 07:35:22 51°18.85 2°49.03 39.584617 5.08711 34.257272 -0.781249
2003-06-25 07:35:26 51°18.86 2°49.01 40.130644 5.086899 34.256708 -0.781249
2003-06-25 07:35:32 51°18.88 2°48.98 38.652481 5.087321 34.260418 -0.74754
2003-06-25 07:35:36 51°18.88 2°48.96 36.846621 5.087321 34.259902 -0.814958
2003-06-25 07:35:42 51°18.9 2°48.93 36.846621 5.087321 34.259902 -0.814958
2003-06-25 07:35:46 51°18.91 2°48.91 37.681107 5.08711 34.258821 -0.781249
2003-06-25 07:35:52 51°18.92 2°48.88 36.707696 5.087005 34.257506 -0.781249
2003-06-25 07:35:56 51°18.93 2°48.86 37.269629 5.087216 34.259103 -0.781249
2003-06-25 07:36:00 51°18.94 2°48.84 37.945292 5.086794 34.256942 -0.781249
2003-06-25 07:36:06 51°18.95 2°48.81 38.029224 5.087005 34.259055 -0.781249
2003-06-25 07:36:12 51°18.96 2°48.78 38.029224 5.087005 34.259055 -0.781249
2003-06-25 07:36:16 51°18.97 2°48.76 35.727876 5.087321 34.260935 -0.781249
2003-06-25 07:36:22 51°18.99 2°48.73 36.530878 5.086899 34.258256 -0.74754
2003-06-25 07:36:26 51°19 2°48.71 34.783728 5.086899 34.258773 -0.781249
2003-06-25 07:36:32 51°19.01 2°48.68 34.823017 5.086583 34.25741 -0.74754
2003-06-25 07:36:36 51°19.02 2°48.66 35.649914 5.087005 34.260088 -0.74754
2003-06-25 07:36:42 51°19.03 2°48.63 35.649914 5.087005 34.260088 -0.74754
2003-06-25 07:36:46 51°19.04 2°48.61 35.811882 5.086794 34.258491 -0.781249
2003-06-25 07:36:52 51°19.05 2°48.58 37.00791 5.087321 34.262484 -0.74754
2003-06-25 07:36:56 51°19.06 2°48.56 37.079525 5.086794 34.259007 -0.781249
2003-06-25 07:37:02 51°19.08 2°48.54 37.239091 5.087005 34.260604 -0.781249
2003-06-25 07:37:06 51°19.09 2°48.52 36.526109 5.086794 34.26004 -0.781249
2003-06-25 07:37:12 51°19.1 2°48.49 36.526109 5.086794 34.26004 -0.781249
2003-06-25 07:37:16 51°19.11 2°48.47 35.858939 5.086899 34.260838 -0.814958
2003-06-25 07:37:22 51°19.12 2°48.44 37.284797 5.086794 34.26004 -0.781249
2003-06-25 07:37:26 51°19.13 2°48.42 36.661853 5.086688 34.259241 -0.781249
2003-06-25 07:37:32 51°19.15 2°48.39 36.962174 5.086477 34.25816 -0.781249
2003-06-25 07:37:36 51°19.15 2°48.37 36.190293 5.086688 34.259758 -0.781249
2003-06-25 07:37:40 51°19.16 2°48.35 36.190293 5.086688 34.259758 -0.781249
2003-06-25 07:37:44 51°19.17 2°48.33 36.92758 5.086583 34.258959 -0.781249
2003-06-25 07:37:52 51°19.19 2°48.29 37.085807 5.086899 34.261871 -0.814958
2003-06-25 07:37:56 51°19.2 2°48.27 37.087224 5.086371 34.258394 -0.781249
2003-06-25 07:38:02 51°19.21 2°48.24 36.539473 5.086794 34.261073 -0.74754
2003-06-25 07:38:06 51°19.22 2°48.22 36.258254 5.086477 34.259709 -0.74754
2003-06-25 07:38:12 51°19.24 2°48.19 36.258254 5.086477 34.259709 -0.74754
2003-06-25 07:38:16 51°19.25 2°48.17 36.64731 5.086477 34.259709 -0.781249
2003-06-25 07:38:20 51°19.25 2°48.15 36.248749 5.086477 34.259709 -0.781249
2003-06-25 07:38:26 51°19.27 2°48.12 36.931518 5.086266 34.258112 -0.781249
2003-06-25 07:38:32 51°19.28 2°48.09 37.085291 5.086477 34.260742 -0.781249
2003-06-25 07:38:36 51°19.29 2°48.07 36.161783 5.08616 34.25783 -0.814958
2003-06-25 07:38:42 51°19.31 2°48.04 36.161783 5.08616 34.25783 -0.814958
2003-06-25 07:38:46 51°19.31 2°48.02 36.719833 5.086477 34.260742 -0.781249
2003-06-25 07:38:52 51°19.33 2°47.99 37.878147 5.086583 34.262058 -0.74754
2003-06-25 07:38:56 51°19.34 2°47.97 37.119044 5.08616 34.259379 -0.74754
2003-06-25 07:39:00 51°19.35 2°47.95 36.722325 5.08616 34.258863 -0.781249
2003-06-25 07:39:06 51°19.36 2°47.92 36.643359 5.086055 34.25858 -0.781249
2003-06-25 07:39:12 51°19.37 2°47.88 36.643359 5.086055 34.25858 -0.781249
2003-06-25 07:39:16 51°19.38 2°47.86 36.484997 5.086266 34.260694 -0.781249
2003-06-25 07:39:22 51°19.4 2°47.83 37.127512 5.086266 34.260178 -0.74754
2003-06-25 07:39:26 51°19.41 2°47.81 36.137467 5.085738 34.256701 -0.814958
2003-06-25 07:39:32 51°19.42 2°47.78 36.751832 5.085844 34.258016 -0.74754
2003-06-25 07:39:36 51°19.43 2°47.76 35.655523 5.086055 34.260646 -0.814958
2003-06-25 07:39:42 51°19.44 2°47.73 35.655523 5.086055 34.260646 -0.814958
2003-06-25 07:39:46 51°19.45 2°47.71 35.629575 5.086266 34.261727 -0.781249
2003-06-25 07:39:52 51°19.46 2°47.68 36.032787 5.086266 34.261727 -0.74754
2003-06-25 07:39:56 51°19.47 2°47.66 36.487658 5.085949 34.260364 -0.74754
2003-06-25 07:40:02 51°19.49 2°47.63 35.660442 5.08616 34.261445 -0.74754
2003-06-25 07:40:06 51°19.5 2°47.61 35.660442 5.08616 34.261445 -0.74754
2003-06-25 07:40:12 51°19.51 2°47.58 36.621491 5.085421 34.25637 -0.781249
2003-06-25 07:40:16 51°19.52 2°47.56 36.143661 5.085844 34.260082 -0.781249
2003-06-25 07:40:22 51°19.53 2°47.53 37.046594 5.085738 34.258767 -0.814958
2003-06-25 07:40:26 51°19.54 2°47.51 36.700673 5.08616 34.261962 -0.781249
2003-06-25 07:40:32 51°19.56 2°47.48 35.930158 5.085844 34.260082 -0.74754
2003-06-25 07:40:36 51°19.57 2°47.46 36.651456 5.085633 34.258484 -0.781249
2003-06-25 07:40:40 51°19.57 2°47.44 36.651456 5.085633 34.258484 -0.781249
2003-06-25 07:40:44 51°19.58 2°47.42 36.146823 5.085949 34.261914 -0.74754
2003-06-25 07:40:52 51°19.6 2°47.38 35.798329 5.085949 34.260881 -0.781249
2003-06-25 07:40:56 51°19.61 2°47.36 35.703328 5.085844 34.261115 -0.74754
2003-06-25 07:41:02 51°19.62 2°47.33 35.31592 5.085633 34.260034 -0.781249
2003-06-25 07:41:06 51°19.63 2°47.31 37.174859 5.085527 34.259235 -0.781249
2003-06-25 07:41:12 51°19.65 2°47.28 37.174859 5.085527 34.259235 -0.781249
2003-06-25 07:41:16 51°19.66 2°47.26 36.227 5.085633 34.260551 -0.781249
2003-06-25 07:41:20 51°19.67 2°47.24 35.773247 5.085949 34.261914 -0.74754
2003-06-25 07:41:26 51°19.68 2°47.21 35.046077 5.085316 34.258154 -0.781249
2003-06-25 07:41:32 51°19.69 2°47.18 37.148244 5.085527 34.260268 -0.781249
2003-06-25 07:41:36 51°19.7 2°47.16 35.559102 5.085527 34.260268 -0.781249
2003-06-25 07:41:42 51°19.72 2°47.13 35.559102 5.085527 34.260268 -0.781249
2003-06-25 07:41:46 51°19.73 2°47.11 36.389158 5.085738 34.262383 -0.781249
2003-06-25 07:41:52 51°19.74 2°47.08 36.176219 5.085633 34.261584 -0.74754
2003-06-25 07:41:56 51°19.75 2°47.06 36.017444 5.085422 34.259986 -0.74754
2003-06-25 07:42:02 51°19.76 2°47.03 36.63701 5.08521 34.258905 -0.814958
2003-06-25 07:42:06 51°19.77 2°47 35.446813 5.085633 34.262617 -0.74754
2003-06-25 07:42:12 51°19.79 2°46.97 35.446813 5.085633 34.262617 -0.74754
2003-06-25 07:42:16 51°19.8 2°46.95 37.809414 5.085422 34.261019 -0.781249
2003-06-25 07:42:22 51°19.81 2°46.92 37.021193 5.08521 34.259421 -0.781249
2003-06-25 07:42:26 51°19.82 2°46.9 36.279538 5.085633 34.262617 -0.781249
2003-06-25 07:42:32 51°19.83 2°46.87 35.824483 5.08521 34.259421 -0.781249
2003-06-25 07:42:36 51°19.84 2°46.85 35.565013 5.085422 34.262053 -0.74754
2003-06-25 07:42:42 51°19.86 2°46.82 35.565013 5.085422 34.262053 -0.74754
2003-06-25 07:42:46 51°19.86 2°46.8 35.242463 5.085316 34.26177 -0.781249
2003-06-25 07:42:52 51°19.88 2°46.77 36.467533 5.08521 34.260971 -0.781249
2003-06-25 07:42:56 51°19.89 2°46.75 36.12159 5.08521 34.260971 -0.781249
2003-06-25 07:43:02 51°19.9 2°46.72 36.476915 5.08521 34.261488 -0.74754
2003-06-25 07:43:06 51°19.91 2°46.7 36.761018 5.08521 34.261488 -0.781249
2003-06-25 07:43:12 51°19.92 2°46.67 36.761018 5.08521 34.261488 -0.781249
2003-06-25 07:43:16 51°19.93 2°46.65 37.315542 5.084788 34.258292 -0.74754
2003-06-25 07:43:22 51°19.95 2°46.62 36.560132 5.085105 34.261206 -0.781249
2003-06-25 07:43:26 51°19.96 2°46.6 35.908616 5.084999 34.260407 -0.71383
2003-06-25 07:43:32 51°19.97 2°46.57 35.918031 5.08521 34.262521 -0.781249
2003-06-25 07:43:36 51°19.98 2°46.55 35.757362 5.084894 34.260641 -0.781249
2003-06-25 07:43:40 51°19.99 2°46.53 35.757362 5.084894 34.260641 -0.781249
2003-06-25 07:43:44 51°20 2°46.51 35.945225 5.084894 34.260641 -0.781249
2003-06-25 07:43:52 51°20.02 2°46.47 36.658031 5.084999 34.261957 -0.814958
2003-06-25 07:43:56 51°20.02 2°46.45 37.634347 5.085105 34.261723 -0.74754
2003-06-25 07:44:02 51°20.04 2°46.42 37.39574 5.084894 34.261158 -0.814958
2003-06-25 07:44:06 51°20.04 2°46.4 37.582085 5.084894 34.262191 -0.814958
2003-06-25 07:44:12 51°20.05 2°46.37 37.582085 5.084894 34.262191 -0.814958
2003-06-25 07:44:16 51°20.06 2°46.34 37.945898 5.084894 34.262708 -0.781249
2003-06-25 07:44:22 51°20.06 2°46.31 36.025703 5.084894 34.263225 -0.74754
2003-06-25 07:44:26 51°20.07 2°46.29 36.473311 5.084894 34.262708 -0.814958
2003-06-25 07:44:32 51°20.07 2°46.25 36.583345 5.084788 34.261392 -0.781249
2003-06-25 07:44:36 51°20.07 2°46.23 36.606455 5.084683 34.26111 -0.814958
2003-06-25 07:44:40 51°20.08 2°46.21 36.606455 5.084683 34.26111 -0.814958
2003-06-25 07:44:46 51°20.08 2°46.17 36.642711 5.084894 34.262708 -0.74754
2003-06-25 07:44:52 51°20.08 2°46.13 35.108225 5.084683 34.260593 -0.74754
2003-06-25 07:44:56 51°20.09 2°46.11 36.367221 5.084788 34.261909 -0.814958
2003-06-25 07:45:02 51°20.09 2°46.08 37.768797 5.084788 34.261909 -0.781249
2003-06-25 07:45:06 51°20.09 2°46.05 36.954785 5.084683 34.262144 -0.781249
2003-06-25 07:45:12 51°20.1 2°46.02 36.954785 5.084683 34.262144 -0.781249
2003-06-25 07:45:16 51°20.1 2°45.99 37.632587 5.084683 34.262144 -0.781249
2003-06-25 07:45:22 51°20.1 2°45.96 36.988657 5.084472 34.261062 -0.781249
2003-06-25 07:45:26 51°20.11 2°45.93 36.788118 5.084472 34.261579 -0.814958
2003-06-25 07:45:32 51°20.11 2°45.9 37.507009 5.084683 34.262661 -0.74754
2003-06-25 07:45:36 51°20.11 2°45.87 36.506156 5.084472 34.261579 -0.74754
2003-06-25 07:45:42 51°20.12 2°45.84 36.506156 5.084472 34.261579 -0.74754
2003-06-25 07:45:46 51°20.12 2°45.81 36.798723 5.084683 34.263177 -0.74754
2003-06-25 07:45:52 51°20.12 2°45.78 36.878052 5.084577 34.262895 -0.781249
2003-06-25 07:45:56 51°20.13 2°45.76 36.295157 5.084366 34.261297 -0.781249
2003-06-25 07:46:02 51°20.13 2°45.72 36.503592 5.084366 34.261814 -0.74754
2003-06-25 07:46:06 51°20.13 2°45.7 35.903647 5.084472 34.26313 -0.781249
2003-06-25 07:46:12 51°20.14 2°45.66 35.903647 5.084472 34.26313 -0.781249
2003-06-25 07:46:16 51°20.14 2°45.64 37.229927 5.084788 34.265527 -0.814958
2003-06-25 07:46:20 51°20.14 2°45.61 36.933358 5.084577 34.264963 -0.74754
2003-06-25 07:46:24 51°20.14 2°45.59 36.510893 5.084472 34.263647 -0.74754
2003-06-25 07:46:32 51°20.15 2°45.54 35.977962 5.084261 34.262048 -0.74754
2003-06-25 07:46:36 51°20.15 2°45.52 35.844216 5.084472 34.263647 -0.781249
2003-06-25 07:46:42 51°20.16 2°45.48 35.844216 5.084472 34.263647 -0.781249
2003-06-25 07:46:46 51°20.16 2°45.46 37.437636 5.084155 34.261766 -0.781249
2003-06-25 07:46:52 51°20.16 2°45.42 37.726945 5.084261 34.262565 -0.781249
2003-06-25 07:46:56 51°20.17 2°45.4 37.621997 5.084366 34.263881 -0.781249
2003-06-25 07:47:00 51°20.17 2°45.38 36.831143 5.084261 34.263082 -0.814958
2003-06-25 07:47:06 51°20.17 2°45.34 36.593945 5.084155 34.263317 -0.781249
2003-06-25 07:47:12 51°20.18 2°45.3 36.593945 5.084155 34.263317 -0.781249
2003-06-25 07:47:16 51°20.18 2°45.28 36.481361 5.084155 34.263317 -0.781249
2003-06-25 07:47:22 51°20.19 2°45.24 36.676975 5.084049 34.262518 -0.74754
2003-06-25 07:47:26 51°20.19 2°45.22 37.416145 5.083944 34.262235 -0.781249
2003-06-25 07:47:32 51°20.19 2°45.18 37.442992 5.084261 34.26515 -0.781249
2003-06-25 07:47:36 51°20.2 2°45.16 37.020258 5.084155 34.264351 -0.781249
2003-06-25 07:47:42 51°20.2 2°45.13 37.020258 5.084155 34.264351 -0.781249
2003-06-25 07:47:46 51°20.2 2°45.1 36.430028 5.084155 34.264351 -0.781249
2003-06-25 07:47:52 51°20.21 2°45.07 36.732453 5.084049 34.263034 -0.781249
2003-06-25 07:47:56 51°20.21 2°45.04 36.706272 5.084049 34.263551 -0.781249
2003-06-25 07:48:02 51°20.22 2°45.01 37.103909 5.083944 34.263269 -0.781249
2003-06-25 07:48:06 51°20.22 2°44.98 36.601367 5.083733 34.262705 -0.781249
2003-06-25 07:48:12 51°20.22 2°44.95 36.601367 5.083733 34.262705 -0.781249
2003-06-25 07:48:16 51°20.23 2°44.92 37.14834 5.084155 34.265384 -0.74754
2003-06-25 07:48:22 51°20.23 2°44.89 36.839092 5.084155 34.265384 -0.74754
2003-06-25 07:48:26 51°20.24 2°44.86 37.237644 5.083944 34.264303 -0.781249
2003-06-25 07:48:32 51°20.24 2°44.83 36.043526 5.08405 34.264585 -0.781249
2003-06-25 07:48:36 51°20.24 2°44.8 37.527066 5.083627 34.262939 -0.74754
2003-06-25 07:48:42 51°20.25 2°44.77 37.527066 5.083627 34.262939 -0.74754
2003-06-25 07:48:46 51°20.25 2°44.74 38.570999 5.083944 34.265337 -0.781249
2003-06-25 07:48:52 51°20.26 2°44.71 37.002202 5.083944 34.265337 -0.814958
2003-06-25 07:48:56 51°20.26 2°44.68 37.431767 5.083627 34.262939 -0.781249
2003-06-25 07:49:02 51°20.26 2°44.65 37.201529 5.083733 34.263739 -0.71383
2003-06-25 07:49:06 51°20.27 2°44.62 37.442928 5.083416 34.261858 -0.781249
2003-06-25 07:49:12 51°20.27 2°44.59 37.442928 5.083416 34.261858 -0.781249
2003-06-25 07:49:16 51°20.27 2°44.56 36.951107 5.083733 34.264773 -0.781249
2003-06-25 07:49:20 51°20.28 2°44.54 36.438862 5.083838 34.265055 -0.814958
2003-06-25 07:49:26 51°20.28 2°44.5 36.368033 5.083522 34.263174 -0.74754
2003-06-25 07:49:32 51°20.29 2°44.47 37.742091 5.083944 34.266888 -0.74754
2003-06-25 07:49:36 51°20.29 2°44.44 37.135979 5.083733 34.264773 -0.781249
2003-06-25 07:49:42 51°20.3 2°44.41 37.135979 5.083733 34.264773 -0.781249
2003-06-25 07:49:46 51°20.3 2°44.38 36.988303 5.083522 34.263691 -0.781249
2003-06-25 07:49:52 51°20.3 2°44.35 37.297135 5.083733 34.265807 -0.74754
2003-06-25 07:49:56 51°20.31 2°44.32 37.579172 5.083416 34.263409 -0.781249
2003-06-25 07:50:02 51°20.31 2°44.29 36.903143 5.083627 34.265007 -0.781249
2003-06-25 07:50:06 51°20.31 2°44.26 36.842129 5.083522 34.264725 -0.781249
2003-06-25 07:50:12 51°20.32 2°44.22 36.842129 5.083522 34.264725 -0.781249
2003-06-25 07:50:16 51°20.32 2°44.2 37.746883 5.083522 34.264725 -0.74754
2003-06-25 07:50:22 51°20.33 2°44.16 36.746753 5.083416 34.263926 -0.781249
2003-06-25 07:50:26 51°20.33 2°44.14 37.529565 5.083522 34.265242 -0.74754
2003-06-25 07:50:32 51°20.33 2°44.1 37.39943 5.083522 34.265759 -0.74754
2003-06-25 07:50:36 51°20.34 2°44.08 37.346533 5.083416 34.26496 -0.781249
2003-06-25 07:50:42 51°20.34 2°44.04 37.346533 5.083416 34.26496 -0.781249
2003-06-25 07:50:46 51°20.35 2°44.02 37.250247 5.083205 34.263878 -0.781249
2003-06-25 07:50:52 51°20.35 2°43.98 37.111251 5.083311 34.265712 -0.781249
2003-06-25 07:50:56 51°20.35 2°43.96 36.63526 5.083416 34.266511 -0.74754
2003-06-25 07:51:00 51°20.36 2°43.94 37.296011 5.083416 34.266511 -0.814958
2003-06-25 07:51:04 51°20.36 2°43.91 37.323733 5.083205 34.264912 -0.74754
2003-06-25 07:51:12 51°20.37 2°43.86 37.323733 5.083205 34.264912 -0.74754
2003-06-25 07:51:16 51°20.37 2°43.84 36.050445 5.083311 34.266229 -0.781249
2003-06-25 07:51:22 51°20.37 2°43.8 36.285005 5.0831 34.264113 -0.74754
2003-06-25 07:51:26 51°20.38 2°43.78 36.912021 5.083205 34.264912 -0.781249
2003-06-25 07:51:32 51°20.38 2°43.74 36.461689 5.0831 34.26463 -0.781249
2003-06-25 07:51:36 51°20.39 2°43.72 36.458248 5.083205 34.26543 -0.814958
2003-06-25 07:51:40 51°20.39 2°43.69 36.458248 5.083205 34.26543 -0.814958
2003-06-25 07:51:46 51°20.39 2°43.66 36.429281 5.083205 34.266464 -0.781249
2003-06-25 07:51:52 51°20.4 2°43.62 36.694555 5.082994 34.264348 -0.781249
2003-06-25 07:51:56 51°20.4 2°43.6 37.459634 5.0831 34.265664 -0.781249
2003-06-25 07:52:02 51°20.41 2°43.56 36.513002 5.0831 34.265664 -0.781249
2003-06-25 07:52:06 51°20.41 2°43.54 36.403423 5.082677 34.262984 -0.781249
2003-06-25 07:52:12 51°20.41 2°43.5 36.403423 5.082677 34.262984 -0.781249
2003-06-25 07:52:16 51°20.42 2°43.48 36.696724 5.0831 34.266699 -0.74754
2003-06-25 07:52:22 51°20.42 2°43.44 36.387144 5.0831 34.266699 -0.781249
2003-06-25 07:52:26 51°20.43 2°43.42 36.272412 5.082889 34.265617 -0.814958
2003-06-25 07:52:32 51°20.43 2°43.38 36.113634 5.082994 34.266934 -0.781249
2003-06-25 07:52:36 51°20.43 2°43.36 35.335517 5.082994 34.266934 -0.781249
2003-06-25 07:52:42 51°20.44 2°43.32 35.335517 5.082994 34.266934 -0.781249
2003-06-25 07:52:46 51°20.44 2°43.3 35.820392 5.082889 34.265617 -0.781249
2003-06-25 07:52:52 51°20.45 2°43.26 35.989622 5.082889 34.266134 -0.781249
2003-06-25 07:52:56 51°20.45 2°43.24 36.702162 5.082994 34.266934 -0.781249
2003-06-25 07:53:02 51°20.45 2°43.2 36.703003 5.082783 34.265852 -0.814958
2003-06-25 07:53:06 51°20.46 2°43.17 37.331922 5.082994 34.267451 -0.74754
2003-06-25 07:53:12 51°20.46 2°43.14 37.331922 5.082994 34.267451 -0.74754
2003-06-25 07:53:16 51°20.46 2°43.11 37.185219 5.082677 34.266087 -0.781249
2003-06-25 07:53:22 51°20.47 2°43.08 36.943911 5.082677 34.266604 -0.74754
2003-06-25 07:53:26 51°20.47 2°43.05 36.758625 5.082889 34.267686 -0.781249
2003-06-25 07:53:32 51°20.47 2°43.02 36.464806 5.082572 34.265288 -0.781249
2003-06-25 07:53:36 51°20.47 2°42.99 37.419514 5.082677 34.266604 -0.781249
2003-06-25 07:53:42 51°20.48 2°42.95 37.419514 5.082677 34.266604 -0.781249
2003-06-25 07:53:44 51°20.48 2°42.94 36.998687 5.082889 34.268203 -0.781249
2003-06-25 07:53:52 51°20.48 2°42.89 36.567622 5.082677 34.267121 -0.781249
2003-06-25 07:53:56 51°20.48 2°42.87 36.6281 5.082572 34.266322 -0.781249
2003-06-25 07:54:02 51°20.48 2°42.83 36.042938 5.082783 34.267404 -0.74754
2003-06-25 07:54:06 51°20.48 2°42.81 36.043363 5.082677 34.267639 -0.781249
2003-06-25 07:54:12 51°20.49 2°42.77 36.043363 5.082677 34.267639 -0.781249
2003-06-25 07:54:16 51°20.49 2°42.75 36.407777 5.082677 34.267121 -0.74754
2003-06-25 07:54:22 51°20.49 2°42.71 36.786049 5.082466 34.266557 -0.781249
2003-06-25 07:54:26 51°20.49 2°42.69 37.624172 5.082677 34.268673 -0.814958
2003-06-25 07:54:32 51°20.49 2°42.65 37.158672 5.082572 34.267356 -0.74754
2003-06-25 07:54:36 51°20.49 2°42.63 36.782169 5.082466 34.267592 -0.781249
2003-06-25 07:54:42 51°20.49 2°42.59 36.782169 5.082466 34.267592 -0.781249
2003-06-25 07:54:46 51°20.49 2°42.56 37.045756 5.082466 34.267592 -0.781249
2003-06-25 07:54:52 51°20.49 2°42.53 36.597186 5.082677 34.268156 -0.781249
2003-06-25 07:54:56 51°20.49 2°42.5 37.039535 5.082044 34.264911 -0.74754
2003-06-25 07:55:02 51°20.49 2°42.47 35.9398 5.082466 34.267592 -0.814958
2003-06-25 07:55:06 51°20.49 2°42.44 35.9398 5.082466 34.267592 -0.814958
2003-06-25 07:55:12 51°20.49 2°42.41 36.65191 5.082255 34.26651 -0.781249
2003-06-25 07:55:16 51°20.49 2°42.38 36.23374 5.082255 34.26651 -0.74754
2003-06-25 07:55:22 51°20.49 2°42.35 36.396242 5.082466 34.268109 -0.781249
2003-06-25 07:55:26 51°20.49 2°42.32 36.662241 5.082361 34.267309 -0.781249
2003-06-25 07:55:32 51°20.49 2°42.28 36.733941 5.082361 34.267309 -0.74754
2003-06-25 07:55:36 51°20.49 2°42.26 37.131923 5.082044 34.264911 -0.781249
2003-06-25 07:55:42 51°20.5 2°42.22 37.131923 5.082044 34.264911 -0.781249
2003-06-25 07:55:46 51°20.5 2°42.2 36.867167 5.08215 34.266745 -0.781249
2003-06-25 07:55:52 51°20.5 2°42.16 37.32505 5.082255 34.267544 -0.74754
2003-06-25 07:55:56 51°20.5 2°42.14 36.330644 5.08215 34.267779 -0.781249
2003-06-25 07:56:02 51°20.5 2°42.1 36.372811 5.082255 34.269614 -0.814958
2003-06-25 07:56:06 51°20.5 2°42.08 37.00275 5.082044 34.268532 -0.781249
2003-06-25 07:56:12 51°20.5 2°42.04 37.00275 5.082044 34.268532 -0.781249
2003-06-25 07:56:16 51°20.5 2°42.02 35.964372 5.082361 34.269896 -0.781249
2003-06-25 07:56:22 51°20.5 2°41.98 36.013428 5.082044 34.267497 -0.74754
2003-06-25 07:56:26 51°20.5 2°41.96 36.818765 5.08215 34.268814 -0.814958
2003-06-25 07:56:32 51°20.5 2°41.92 35.806579 5.082044 34.26698 -0.814958
2003-06-25 07:56:36 51°20.5 2°41.9 36.448702 5.081833 34.266933 -0.814958
2003-06-25 07:56:42 51°20.5 2°41.86 36.448702 5.081833 34.266933 -0.814958
2003-06-25 07:56:44 51°20.5 2°41.85 36.766646 5.08215 34.268814 -0.781249
2003-06-25 07:56:52 51°20.5 2°41.8 35.349051 5.081833 34.266415 -0.781249
2003-06-25 07:56:56 51°20.5 2°41.78 37.032347 5.082044 34.269567 -0.781249
2003-06-25 07:57:02 51°20.5 2°41.74 35.977178 5.082044 34.269567 -0.781249
2003-06-25 07:57:06 51°20.5 2°41.72 35.118231 5.08215 34.270366 -0.781249
2003-06-25 07:57:12 51°20.51 2°41.68 35.118231 5.08215 34.270366 -0.781249
2003-06-25 07:57:16 51°20.51 2°41.66 36.025769 5.081833 34.268485 -0.74754
2003-06-25 07:57:22 51°20.51 2°41.62 35.997526 5.081939 34.26825 -0.74754
2003-06-25 07:57:26 51°20.51 2°41.6 36.532467 5.081833 34.267967 -0.781249
2003-06-25 07:57:32 51°20.51 2°41.56 36.115656 5.081939 34.268767 -0.781249
2003-06-25 07:57:36 51°20.51 2°41.54 36.322546 5.081728 34.267685 -0.781249
2003-06-25 07:57:42 51°20.51 2°41.5 36.322546 5.081728 34.267685 -0.781249
2003-06-25 07:57:46 51°20.51 2°41.48 36.719736 5.081939 34.269285 -0.814958
2003-06-25 07:57:52 51°20.51 2°41.44 35.412507 5.081833 34.268485 -0.781249
2003-06-25 07:57:56 51°20.51 2°41.42 35.708999 5.081939 34.269802 -0.814958
2003-06-25 07:58:00 51°20.51 2°41.39 35.173921 5.081833 34.26952 -0.781249
2003-06-25 07:58:06 51°20.51 2°41.36 35.816988 5.081728 34.269238 -0.74754
2003-06-25 07:58:12 51°20.51 2°41.32 35.816988 5.081728 34.269238 -0.74754
2003-06-25 07:58:16 51°20.51 2°41.3 36.431717 5.081622 34.268955 -0.781249
2003-06-25 07:58:22 51°20.52 2°41.26 35.496389 5.081833 34.270555 -0.74754
2003-06-25 07:58:26 51°20.52 2°41.24 35.658835 5.081622 34.268955 -0.781249
2003-06-25 07:58:32 51°20.52 2°41.2 36.513651 5.081622 34.269473 -0.74754
2003-06-25 07:58:36 51°20.52 2°41.18 36.513651 5.081622 34.269473 -0.74754
2003-06-25 07:58:42 51°20.52 2°41.14 36.28289 5.081728 34.269755 -0.781249
2003-06-25 07:58:46 51°20.52 2°41.12 35.660082 5.081833 34.271072 -0.814958
2003-06-25 07:58:52 51°20.52 2°41.08 36.063106 5.081728 34.270272 -0.781249
2003-06-25 07:58:56 51°20.52 2°41.06 34.578709 5.081728 34.269755 -0.74754
2003-06-25 07:59:02 51°20.52 2°41.02 34.27351 5.081622 34.269473 -0.781249
2003-06-25 07:59:06 51°20.52 2°41 34.960489 5.081516 34.269191 -0.781249
2003-06-25 07:59:12 51°20.52 2°40.96 34.960489 5.081516 34.269191 -0.781249
2003-06-25 07:59:16 51°20.52 2°40.94 35.014604 5.081516 34.270226 -0.781249
2003-06-25 07:59:22 51°20.53 2°40.9 34.171936 5.081622 34.271025 -0.74754
2003-06-25 07:59:26 51°20.53 2°40.88 34.1711 5.081622 34.271025 -0.74754
2003-06-25 07:59:32 51°20.53 2°40.84 36.750247 5.081516 34.270226 -0.781249
2003-06-25 07:59:36 51°20.53 2°40.82 36.89168 5.081622 34.271543 -0.781249
2003-06-25 07:59:40 51°20.53 2°40.79 36.89168 5.081622 34.271543 -0.781249
2003-06-25 07:59:44 51°20.53 2°40.77 36.998881 5.081517 34.270743 -0.74754
2003-06-25 07:59:52 51°20.53 2°40.72 37.429169 5.081305 34.269661 -0.74754
2003-06-25 07:59:56 51°20.53 2°40.7 36.850239 5.081305 34.269144 -0.781249
2003-06-25 08:00:02 51°20.53 2°40.66 37.211822 5.081305 34.269661 -0.74754
2003-06-25 08:00:06 51°20.54 2°40.64 36.867652 5.081517 34.271261 -0.781249
2003-06-25 08:00:12 51°20.54 2°40.6 36.867652 5.081517 34.271261 -0.781249
2003-06-25 08:00:16 51°20.54 2°40.57 36.576246 5.081305 34.270179 -0.74754
2003-06-25 08:00:22 51°20.54 2°40.54 36.99414 5.0812 34.269379 -0.781249
2003-06-25 08:00:26 51°20.54 2°40.51 36.312398 5.081094 34.269097 -0.781249
2003-06-25 08:00:32 51°20.54 2°40.48 35.63676 5.081305 34.270696 -0.781249
2003-06-25 08:00:36 51°20.54 2°40.45 36.047279 5.0812 34.270414 -0.74754
2003-06-25 08:00:42 51°20.54 2°40.42 36.047279 5.0812 34.270414 -0.74754
2003-06-25 08:00:46 51°20.54 2°40.39 36.474188 5.081305 34.271731 -0.781249
2003-06-25 08:00:52 51°20.54 2°40.36 36.944233 5.0812 34.270414 -0.814958
2003-06-25 08:00:56 51°20.54 2°40.33 36.635131 5.0812 34.271449 -0.781249
2003-06-25 08:01:02 51°20.54 2°40.3 36.342318 5.081094 34.270132 -0.74754
2003-06-25 08:01:06 51°20.54 2°40.27 35.729023 5.0812 34.270932 -0.74754
2003-06-25 08:01:12 51°20.55 2°40.24 35.729023 5.0812 34.270932 -0.74754
2003-06-25 08:01:16 51°20.55 2°40.21 36.372031 5.0812 34.271967 -0.781249
2003-06-25 08:01:22 51°20.55 2°40.17 36.743647 5.081094 34.270132 -0.781249
2003-06-25 08:01:26 51°20.55 2°40.15 36.604381 5.080989 34.269332 -0.781249
2003-06-25 08:01:32 51°20.55 2°40.11 36.790285 5.080989 34.270367 -0.74754
2003-06-25 08:01:36 51°20.55 2°40.09 37.268183 5.080989 34.271402 -0.781249
2003-06-25 08:01:42 51°20.54 2°40.05 37.268183 5.080989 34.271402 -0.781249
2003-06-25 08:01:46 51°20.54 2°40.03 36.81634 5.0812 34.272484 -0.781249
2003-06-25 08:01:52 51°20.54 2°40 37.263908 5.080989 34.27192 -0.781249
2003-06-25 08:01:56 51°20.53 2°39.98 36.660557 5.081094 34.273237 -0.781249
2003-06-25 08:02:02 51°20.52 2°39.94 38.025913 5.0812 34.27352 -0.781249
2003-06-25 08:02:06 51°20.51 2°39.92 37.846404 5.080883 34.272673 -0.74754
2003-06-25 08:02:12 51°20.5 2°39.9 37.846404 5.080883 34.272673 -0.74754
2003-06-25 08:02:16 51°20.49 2°39.88 36.755196 5.081094 34.273237 -0.814958
2003-06-25 08:02:22 51°20.48 2°39.85 36.367871 5.080883 34.271638 -0.74754
2003-06-25 08:02:26 51°20.47 2°39.83 35.188175 5.081094 34.272202 -0.781249
2003-06-25 08:02:32 51°20.45 2°39.81 35.606179 5.080989 34.270885 -0.814958
2003-06-25 08:02:36 51°20.44 2°39.79 36.003436 5.080778 34.27032 -0.74754
2003-06-25 08:02:42 51°20.43 2°39.76 36.003436 5.080778 34.27032 -0.74754
2003-06-25 08:02:46 51°20.42 2°39.74 36.289821 5.081094 34.272202 -0.74754
2003-06-25 08:02:52 51°20.41 2°39.71 35.629017 5.080883 34.27112 -0.74754
2003-06-25 08:02:56 51°20.4 2°39.7 36.398744 5.080883 34.271638 -0.781249
2003-06-25 08:03:02 51°20.38 2°39.67 35.462597 5.080883 34.271638 -0.814958
2003-06-25 08:03:06 51°20.37 2°39.65 35.679396 5.080883 34.27112 -0.814958
2003-06-25 08:03:12 51°20.36 2°39.62 35.679396 5.080883 34.27112 -0.814958
2003-06-25 08:03:16 51°20.35 2°39.6 35.851938 5.080883 34.272673 -0.814958
2003-06-25 08:03:22 51°20.34 2°39.57 36.481134 5.080778 34.271356 -0.781249
2003-06-25 08:03:26 51°20.33 2°39.55 34.925506 5.080883 34.272673 -0.74754
2003-06-25 08:03:32 51°20.31 2°39.53 35.709228 5.080778 34.272909 -0.781249
2003-06-25 08:03:36 51°20.3 2°39.51 36.361369 5.080883 34.273191 -0.74754
2003-06-25 08:03:42 51°20.29 2°39.48 36.361369 5.080883 34.273191 -0.74754
2003-06-25 08:03:46 51°20.28 2°39.46 34.437268 5.080672 34.272109 -0.74754
2003-06-25 08:03:52 51°20.27 2°39.43 35.845296 5.080989 34.274508 -0.814958
2003-06-25 08:03:56 51°20.26 2°39.41 36.564055 5.080567 34.271826 -0.74754
2003-06-25 08:04:02 51°20.24 2°39.39 36.534219 5.080778 34.273426 -0.71383
2003-06-25 08:04:06 51°20.23 2°39.37 36.645691 5.080672 34.273662 -0.781249
2003-06-25 08:04:12 51°20.22 2°39.34 36.645691 5.080672 34.273662 -0.781249
2003-06-25 08:04:16 51°20.21 2°39.32 35.67838 5.080778 34.273426 -0.814958
2003-06-25 08:04:22 51°20.19 2°39.29 36.080333 5.080567 34.272862 -0.814958
2003-06-25 08:04:26 51°20.19 2°39.27 36.806417 5.080672 34.272626 -0.781249
2003-06-25 08:04:32 51°20.17 2°39.25 35.392106 5.080672 34.273144 -0.781249
2003-06-25 08:04:36 51°20.16 2°39.23 36.197656 5.080672 34.273662 -0.74754
2003-06-25 08:04:42 51°20.15 2°39.2 36.197656 5.080672 34.273662 -0.74754
2003-06-25 08:04:46 51°20.14 2°39.18 36.297271 5.080567 34.271826 -0.781249
2003-06-25 08:04:52 51°20.12 2°39.15 35.86993 5.080567 34.272862 -0.781249
2003-06-25 08:04:56 51°20.12 2°39.13 35.583202 5.080567 34.272344 -0.781249
2003-06-25 08:05:02 51°20.1 2°39.11 36.226479 5.080461 34.273615 -0.74754
2003-06-25 08:05:06 51°20.09 2°39.09 35.016257 5.080778 34.274462 -0.781249
2003-06-25 08:05:12 51°20.08 2°39.06 35.016257 5.080778 34.274462 -0.781249
2003-06-25 08:05:16 51°20.07 2°39.04 35.468679 5.080356 34.272298 -0.781249
2003-06-25 08:05:22 51°20.05 2°39.01 36.013363 5.080672 34.274697 -0.781249
2003-06-25 08:05:26 51°20.05 2°38.99 35.979399 5.080461 34.273097 -0.74754
2003-06-25 08:05:32 51°20.03 2°38.96 36.495415 5.080461 34.273097 -0.781249
2003-06-25 08:05:36 51°20.02 2°38.94 36.069273 5.080461 34.273615 -0.781249
2003-06-25 08:05:42 51°20.01 2°38.92 36.069273 5.080461 34.273615 -0.781249
2003-06-25 08:05:46 51°20 2°38.9 36.017183 5.080461 34.273097 -0.74754
2003-06-25 08:05:52 51°19.98 2°38.87 36.470682 5.080356 34.272815 -0.74754
2003-06-25 08:05:56 51°19.98 2°38.85 36.491131 5.080461 34.273097 -0.74754
2003-06-25 08:06:02 51°19.96 2°38.82 35.805564 5.080356 34.273333 -0.781249
2003-06-25 08:06:06 51°19.95 2°38.8 36.554522 5.080461 34.274133 -0.781249
2003-06-25 08:06:12 51°19.94 2°38.77 36.554522 5.080461 34.274133 -0.781249
2003-06-25 08:06:16 51°19.93 2°38.75 35.630494 5.080356 34.273333 -0.814958
2003-06-25 08:06:22 51°19.92 2°38.73 36.468637 5.08025 34.272533 -0.781249
2003-06-25 08:06:26 51°19.91 2°38.71 36.573555 5.080356 34.274369 -0.814958
2003-06-25 08:06:32 51°19.89 2°38.68 36.600784 5.080356 34.273851 -0.781249
2003-06-25 08:06:36 51°19.88 2°38.66 35.512918 5.080356 34.274886 -0.74754
2003-06-25 08:06:42 51°19.87 2°38.63 35.512918 5.080356 34.274886 -0.74754
2003-06-25 08:06:46 51°19.86 2°38.61 35.846605 5.08025 34.274604 -0.814958
2003-06-25 08:06:52 51°19.85 2°38.58 36.449643 5.080144 34.273286 -0.781249
2003-06-25 08:06:56 51°19.84 2°38.57 35.67897 5.080039 34.27404 -0.781249
2003-06-25 08:07:02 51°19.82 2°38.54 36.737144 5.080356 34.274369 -0.781249
2003-06-25 08:07:06 51°19.81 2°38.52 35.240716 5.080039 34.273004 -0.74754
2003-06-25 08:07:12 51°19.8 2°38.49 35.240716 5.080039 34.273004 -0.74754
2003-06-25 08:07:16 51°19.79 2°38.47 36.287641 5.080039 34.273004 -0.74754
2003-06-25 08:07:22 51°19.78 2°38.44 35.912768 5.080039 34.27404 -0.781249
2003-06-25 08:07:26 51°19.77 2°38.43 35.040457 5.080144 34.273804 -0.814958
2003-06-25 08:07:32 51°19.75 2°38.4 36.422785 5.080144 34.274322 -0.814958
2003-06-25 08:07:36 51°19.74 2°38.38 35.701755 5.080039 34.273004 -0.781249
2003-06-25 08:07:42 51°19.73 2°38.35 35.701755 5.080039 34.273004 -0.781249
2003-06-25 08:07:46 51°19.72 2°38.33 36.033016 5.080039 34.274558 -0.74754
2003-06-25 08:07:52 51°19.71 2°38.3 35.657753 5.080144 34.27484 -0.74754
2003-06-25 08:07:56 51°19.7 2°38.28 35.618944 5.079933 34.273758 -0.781249
2003-06-25 08:08:02 51°19.68 2°38.26 34.790593 5.080144 34.27484 -0.781249
2003-06-25 08:08:06 51°19.67 2°38.24 33.440758 5.079933 34.274793 -0.781249
2003-06-25 08:08:12 51°19.66 2°38.21 33.440758 5.079933 34.274793 -0.781249
2003-06-25 08:08:16 51°19.65 2°38.19 34.127905 5.080039 34.275076 -0.781249
2003-06-25 08:08:22 51°19.64 2°38.16 34.104458 5.079933 34.274276 -0.74754
2003-06-25 08:08:26 51°19.63 2°38.14 33.802973 5.080145 34.275876 -0.814958
2003-06-25 08:08:32 51°19.61 2°38.12 33.554272 5.079828 34.273476 -0.781249
2003-06-25 08:08:36 51°19.6 2°38.1 36.055862 5.079722 34.273711 -0.781249
2003-06-25 08:08:42 51°19.59 2°38.07 36.055862 5.079722 34.273711 -0.781249
2003-06-25 08:08:46 51°19.58 2°38.05 35.598794 5.080144 34.275358 -0.814958
2003-06-25 08:08:52 51°19.56 2°38.03 35.252057 5.079933 34.274276 -0.781249
2003-06-25 08:08:56 51°19.55 2°38.01 35.682151 5.079722 34.273193 -0.74754
2003-06-25 08:09:02 51°19.54 2°37.98 35.976524 5.079933 34.275829 -0.74754
2003-06-25 08:09:06 51°19.53 2°37.96 35.332948 5.079828 34.274511 -0.781249
2003-06-25 08:09:12 51°19.52 2°37.94 35.332948 5.079828 34.274511 -0.781249
2003-06-25 08:09:16 51°19.51 2°37.92 35.737837 5.079933 34.276347 -0.781249
2003-06-25 08:09:22 51°19.49 2°37.89 35.656704 5.079617 34.274465 -0.74754
2003-06-25 08:09:26 51°19.48 2°37.87 35.849713 5.079828 34.275029 -0.781249
2003-06-25 08:09:32 51°19.47 2°37.85 35.335517 5.079722 34.275783 -0.74754
2003-06-25 08:09:36 51°19.46 2°37.83 36.007191 5.079933 34.276865 -0.781249
2003-06-25 08:09:42 51°19.45 2°37.8 36.007191 5.079933 34.276865 -0.781249
2003-06-25 08:09:46 51°19.44 2°37.78 35.444281 5.079722 34.274747 -0.781249
2003-06-25 08:09:52 51°19.42 2°37.76 35.148606 5.079617 34.274465 -0.74754
2003-06-25 08:09:56 51°19.41 2°37.74 35.68897 5.079828 34.276065 -0.781249
2003-06-25 08:10:02 51°19.4 2°37.71 35.367487 5.079722 34.274747 -0.781249
2003-06-25 08:10:06 51°19.39 2°37.69 35.419646 5.079617 34.274983 -0.781249
2003-06-25 08:10:12 51°19.38 2°37.67 35.419646 5.079617 34.274983 -0.781249
2003-06-25 08:10:16 51°19.37 2°37.65 35.609592 5.079617 34.274983 -0.814958
2003-06-25 08:10:22 51°19.35 2°37.62 35.689527 5.079617 34.274983 -0.781249
2003-06-25 08:10:26 51°19.34 2°37.6 35.586091 5.079511 34.274701 -0.781249
2003-06-25 08:10:32 51°19.33 2°37.58 35.147484 5.079722 34.276301 -0.781249
2003-06-25 08:10:36 51°19.32 2°37.56 34.857416 5.079511 34.275219 -0.781249
2003-06-25 08:10:42 51°19.31 2°37.53 34.857416 5.079511 34.275219 -0.781249
2003-06-25 08:10:46 51°19.3 2°37.51 35.148804 5.079511 34.275219 -0.74754
2003-06-25 08:10:52 51°19.28 2°37.49 35.1037 5.079511 34.275219 -0.74754
2003-06-25 08:10:56 51°19.27 2°37.47 35.964078 5.079617 34.276537 -0.781249
2003-06-25 08:11:02 51°19.26 2°37.44 35.182368 5.079406 34.274936 -0.781249
2003-06-25 08:11:06 51°19.25 2°37.42 35.419711 5.079511 34.276254 -0.781249
2003-06-25 08:11:12 51°19.23 2°37.4 35.419711 5.079511 34.276254 -0.781249
2003-06-25 08:11:16 51°19.23 2°37.38 35.634168 5.079511 34.275219 -0.74754
2003-06-25 08:11:22 51°19.21 2°37.35 33.519969 5.079511 34.276254 -0.781249
2003-06-25 08:11:26 51°19.2 2°37.33 34.79046 5.079511 34.277291 -0.781249
2003-06-25 08:11:32 51°19.19 2°37.31 34.673282 5.0793 34.274654 -0.781249
2003-06-25 08:11:36 51°19.18 2°37.29 35.880069 5.079406 34.275972 -0.814958
2003-06-25 08:11:42 51°19.16 2°37.26 35.880069 5.079406 34.275972 -0.814958
2003-06-25 08:11:46 51°19.16 2°37.24 35.020886 5.079406 34.275454 -0.781249
2003-06-25 08:11:52 51°19.14 2°37.22 35.836036 5.079195 34.27489 -0.74754
2003-06-25 08:11:56 51°19.13 2°37.2 35.72994 5.0793 34.275172 -0.781249
2003-06-25 08:12:02 51°19.12 2°37.17 35.838948 5.079195 34.274372 -0.71383
2003-06-25 08:12:06 51°19.11 2°37.15 35.184348 5.0793 34.276208 -0.74754
2003-06-25 08:12:12 51°19.09 2°37.13 35.184348 5.0793 34.276208 -0.74754
2003-06-25 08:12:16 51°19.08 2°37.11 36.05051 5.079406 34.27649 -0.781249
2003-06-25 08:12:22 51°19.07 2°37.08 35.482617 5.079089 34.274608 -0.781249
2003-06-25 08:12:26 51°19.06 2°37.07 36.053284 5.0793 34.276726 -0.781249
2003-06-25 08:12:32 51°19.05 2°37.04 36.658938 5.0793 34.276208 -0.781249
2003-06-25 08:12:36 51°19.04 2°37.02 35.510946 5.079089 34.275644 -0.74754
2003-06-25 08:12:42 51°19.02 2°36.99 35.510946 5.079089 34.275644 -0.74754
2003-06-25 08:12:48 51°19.01 2°36.97 36.412195 5.079406 34.277526 -0.74754
2003-06-25 08:12:52 51°19 2°36.95 35.600796 5.079195 34.276444 -0.74754
2003-06-25 08:12:56 51°18.99 2°36.93 36.192053 5.079195 34.276444 -0.781249
2003-06-25 08:13:00 51°18.98 2°36.91 35.083418 5.079195 34.27748 -0.781249
2003-06-25 08:13:04 51°18.97 2°36.89 36.717309 5.079195 34.276444 -0.781249
2003-06-25 08:13:12 51°18.95 2°36.86 36.717309 5.079195 34.276444 -0.781249
2003-06-25 08:13:16 51°18.94 2°36.84 36.698633 5.079195 34.27748 -0.74754
2003-06-25 08:13:22 51°18.93 2°36.81 35.570726 5.0793 34.277762 -0.74754
2003-06-25 08:13:28 51°18.92 2°36.79 35.999779 5.0793 34.277244 -0.74754
2003-06-25 08:13:32 51°18.91 2°36.77 35.570299 5.079089 34.27668 -0.781249
2003-06-25 08:13:36 51°18.9 2°36.75 37.135689 5.078983 34.275362 -0.74754
2003-06-25 08:13:42 51°18.88 2°36.72 37.135689 5.078983 34.275362 -0.74754
2003-06-25 08:13:46 51°18.87 2°36.71 36.820607 5.078984 34.276916 -0.781249
2003-06-25 08:13:52 51°18.86 2°36.68 35.865776 5.079089 34.277198 -0.74754
2003-06-25 08:13:56 51°18.85 2°36.66 37.064092 5.078984 34.277434 -0.781249
2003-06-25 08:14:02 51°18.84 2°36.63 36.106199 5.078984 34.276916 -0.781249
2003-06-25 08:14:08 51°18.82 2°36.61 36.81647 5.078772 34.275315 -0.814958
2003-06-25 08:14:12 51°18.81 2°36.59 36.81647 5.078772 34.275315 -0.814958
2003-06-25 08:14:16 51°18.8 2°36.57 36.666451 5.078984 34.277434 -0.814958
2003-06-25 08:14:22 51°18.79 2°36.55 35.820229 5.079089 34.277198 -0.74754
2003-06-25 08:14:28 51°18.78 2°36.52 36.346415 5.078878 34.276116 -0.74754
2003-06-25 08:14:32 51°18.77 2°36.5 36.513229 5.078984 34.276916 -0.781249
2003-06-25 08:14:36 51°18.76 2°36.48 35.954603 5.078878 34.276116 -0.74754
2003-06-25 08:14:42 51°18.74 2°36.46 35.954603 5.078878 34.276116 -0.74754
2003-06-25 08:14:48 51°18.73 2°36.43 37.07073 5.078878 34.276634 -0.781249
2003-06-25 08:14:52 51°18.72 2°36.41 36.429801 5.078772 34.276351 -0.814958
2003-06-25 08:14:56 51°18.71 2°36.39 35.815908 5.078772 34.27687 -0.74754
2003-06-25 08:15:00 51°18.7 2°36.38 36.083399 5.078772 34.276351 -0.781249
2003-06-25 08:15:08 51°18.68 2°36.34 35.473347 5.078878 34.278188 -0.74754
2003-06-25 08:15:12 51°18.67 2°36.33 35.473347 5.078878 34.278188 -0.74754
2003-06-25 08:15:16 51°18.66 2°36.31 35.604997 5.078878 34.278188 -0.781249
2003-06-25 08:15:20 51°18.65 2°36.3 36.960367 5.078667 34.277624 -0.74754
2003-06-25 08:15:28 51°18.62 2°36.27 36.54223 5.078772 34.278424 -0.781249
2003-06-25 08:15:32 51°18.61 2°36.26 36.851079 5.078772 34.277906 -0.781249
2003-06-25 08:15:36 51°18.6 2°36.26 35.840748 5.078772 34.278942 -0.781249
2003-06-25 08:15:42 51°18.57 2°36.25 35.840748 5.078772 34.278942 -0.781249
2003-06-25 08:15:48 51°18.55 2°36.24 37.647303 5.078667 34.277624 -0.781249
2003-06-25 08:15:52 51°18.54 2°36.24 37.178752 5.078878 34.279224 -0.814958
2003-06-25 08:15:56 51°18.52 2°36.25 37.310018 5.078667 34.277624 -0.814958
2003-06-25 08:16:02 51°18.5 2°36.25 36.461397 5.078667 34.279178 -0.74754
2003-06-25 08:16:06 51°18.49 2°36.26 36.998623 5.078667 34.27866 -0.781249
2003-06-25 08:16:12 51°18.47 2°36.27 36.998623 5.078667 34.27866 -0.781249
2003-06-25 08:16:16 51°18.45 2°36.28 36.518745 5.078772 34.27946 -0.814958
2003-06-25 08:16:22 51°18.43 2°36.3 37.266158 5.078878 34.280779 -0.781249
2003-06-25 08:16:28 51°18.41 2°36.32 35.611167 5.078456 34.277578 -0.74754
2003-06-25 08:16:32 51°18.4 2°36.33 36.776736 5.078772 34.279979 -0.781249
2003-06-25 08:16:36 51°18.39 2°36.35 36.069599 5.078561 34.277342 -0.74754
2003-06-25 08:16:40 51°18.38 2°36.37 36.069599 5.078561 34.277342 -0.74754
2003-06-25 08:16:48 51°18.36 2°36.4 37.553235 5.078772 34.279979 -0.74754
2003-06-25 08:16:52 51°18.35 2°36.42 36.378987 5.078561 34.276305 -0.74754
2003-06-25 08:16:56 51°18.33 2°36.44 36.283508 5.078667 34.278142 -0.74754
2003-06-25 08:17:02 51°18.32 2°36.47 36.242759 5.078561 34.276823 -0.781249
2003-06-25 08:17:06 51°18.31 2°36.49 37.054135 5.078878 34.280261 -0.781249
2003-06-25 08:17:12 51°18.29 2°36.52 37.054135 5.078878 34.280261 -0.781249
2003-06-25 08:17:16 51°18.28 2°36.54 36.704071 5.078667 34.278142 -0.814958
2003-06-25 08:17:22 51°18.27 2°36.56 37.09299 5.078561 34.27786 -0.71383
2003-06-25 08:17:28 51°18.25 2°36.59 36.607719 5.078772 34.27946 -0.781249
2003-06-25 08:17:32 51°18.24 2°36.61 35.78222 5.07835 34.276259 -0.74754
2003-06-25 08:17:36 51°18.23 2°36.63 36.998816 5.078561 34.278378 -0.781249
2003-06-25 08:17:40 51°18.22 2°36.65 36.998816 5.078561 34.278378 -0.781249
2003-06-25 08:17:48 51°18.2 2°36.69 37.210567 5.078561 34.279414 -0.781249
2003-06-25 08:17:52 51°18.19 2°36.71 36.285493 5.07835 34.277814 -0.781249
2003-06-25 08:17:56 51°18.18 2°36.73 37.744296 5.078561 34.280451 -0.781249
2003-06-25 08:18:02 51°18.16 2°36.76 36.761794 5.078561 34.279414 -0.814958
2003-06-25 08:18:08 51°18.15 2°36.79 36.836862 5.07835 34.277814 -0.74754
2003-06-25 08:18:12 51°18.14 2°36.81 36.836862 5.07835 34.277814 -0.74754
2003-06-25 08:18:16 51°18.13 2°36.82 35.651259 5.07835 34.278332 -0.781249